Time,TemperatureF,DewpointF,PressureIn,WindDirection,WindDirectionDegrees,WindSpeedMPH,WindSpeedGustMPH,Humidity,HourlyPrecipIn,Conditions,Clouds,dailyrainin,SoftwareType,DateUTC
2013-12-10 00:01:00,33.3,31.5,29.26,NE,45,0.0,0.0,93,0.00,,---,0.00,VWS V13.01,2013-12-10 05:01:00,
2013-12-10 00:02:00,33.3,31.5,29.26,NE,45,0.0,0.0,93,0.00,,---,0.00,VWS V13.01,2013-12-10 05:02:00,
2013-12-10 00:03:00,33.3,31.5,29.26,WNW,292,3.4,3.4,93,0.00,,---,0.00,VWS V13.01,2013-12-10 05:03:00,
2013-12-10 00:06:00,33.3,31.5,29.26,WNW,292,0.0,0.0,93,0.00,,---,0.00,VWS V13.01,2013-12-10 05:06:00,
2013-12-10 00:07:00,33.3,31.5,29.26,WNW,292,0.0,0.0,93,0.00,,---,0.00,VWS V13.01,2013-12-10 05:07:00,
2013-12-10 00:08:00,33.3,31.5,29.26,West,270,0.9,0.9,93,0.00,,---,0.00,VWS V13.01,2013-12-10 05:08:00,
2013-12-10 00:09:00,33.3,31.5,29.26,West,270,0.9,0.9,93,0.00,,---,0.00,VWS V13.01,2013-12-10 05:09:00,
2013-12-10 00:11:00,33.3,31.5,29.26,West,270,0.0,0.0,93,0.00,,---,0.00,VWS V13.01,2013-12-10 05:11:00,
2013-12-10 00:12:00,33.3,31.5,29.26,West,270,0.0,0.0,93,0.00,,---,0.00,VWS V13.01,2013-12-10 05:12:00,
2013-12-10 00:13:00,33.3,31.5,29.26,West,270,0.0,0.0,93,0.00,,---,0.00,VWS V13.01,2013-12-10 05:13:00,
2013-12-10 00:14:00,33.3,31.5,29.26,West,270,0.0,0.0,93,0.00,,---,0.00,VWS V13.01,2013-12-10 05:14:00,
2013-12-10 00:16:00,33.3,31.5,29.26,West,270,0.0,0.0,93,0.00,,---,0.00,VWS V13.01,2013-12-10 05:16:00,
2013-12-10 00:18:00,32.9,30.8,29.26,West,270,0.0,0.0,92,0.00,,---,0.00,VWS V13.01,2013-12-10 05:18:00,
2013-12-10 00:19:00,32.9,30.8,29.26,West,270,0.0,0.0,92,0.00,,---,0.00,VWS V13.01,2013-12-10 05:19:00,
2013-12-10 00:20:00,32.9,30.8,29.26,West,270,0.0,0.0,92,0.00,,---,0.00,VWS V13.01,2013-12-10 05:20:00,
2013-12-10 00:21:00,32.9,30.8,29.26,West,270,0.0,0.0,92,0.00,,---,0.00,VWS V13.01,2013-12-10 05:21:00,
2013-12-10 00:24:00,32.9,30.8,29.26,West,270,1.6,1.6,92,0.00,,---,0.00,VWS V13.01,2013-12-10 05:24:00,
2013-12-10 00:25:00,32.9,30.8,29.26,West,270,1.3,1.3,92,0.00,,---,0.00,VWS V13.01,2013-12-10 05:25:00,
2013-12-10 00:26:00,32.9,30.8,29.26,West,270,0.0,1.3,92,0.00,,---,0.00,VWS V13.01,2013-12-10 05:26:00,
2013-12-10 00:29:00,32.9,30.8,29.26,West,270,1.1,1.3,92,0.00,,---,0.00,VWS V13.01,2013-12-10 05:29:00,
2013-12-10 00:30:00,32.9,30.8,29.26,West,270,0.9,1.1,92,0.00,,---,0.00,VWS V13.01,2013-12-10 05:30:00,
2013-12-10 00:31:00,32.9,30.8,29.26,West,270,2.0,2.0,92,0.00,,---,0.00,VWS V13.01,2013-12-10 05:31:00,
2013-12-10 00:32:00,32.9,30.8,29.26,West,270,2.0,2.0,92,0.00,,---,0.00,VWS V13.01,2013-12-10 05:32:00,
2013-12-10 00:33:00,32.9,30.8,29.26,WNW,292,2.0,2.0,92,0.00,,---,0.00,VWS V13.01,2013-12-10 05:33:00,
2013-12-10 00:34:00,32.9,30.8,29.26,WNW,292,0.0,0.0,92,0.00,,---,0.00,VWS V13.01,2013-12-10 05:34:00,
2013-12-10 00:35:00,32.9,30.8,29.26,West,270,1.1,1.1,92,0.00,,---,0.00,VWS V13.01,2013-12-10 05:35:00,
2013-12-10 00:38:00,32.9,30.8,29.26,West,270,0.0,0.0,92,0.00,,---,0.00,VWS V13.01,2013-12-10 05:38:00,
2013-12-10 00:39:00,32.9,30.8,29.26,West,270,0.0,0.0,92,0.00,,---,0.00,VWS V13.01,2013-12-10 05:39:00,
2013-12-10 00:40:00,32.9,30.8,29.26,West,270,1.1,1.1,92,0.00,,---,0.00,VWS V13.01,2013-12-10 05:40:00,
2013-12-10 00:41:00,32.9,30.8,29.26,West,270,0.0,1.1,92,0.00,,---,0.00,VWS V13.01,2013-12-10 05:41:00,
2013-12-10 00:43:00,32.9,30.8,29.26,West,270,0.0,0.0,92,0.00,,---,0.00,VWS V13.01,2013-12-10 05:43:00,
2013-12-10 00:46:00,32.9,30.8,29.26,West,270,0.0,2.9,92,0.00,,---,0.00,VWS V13.01,2013-12-10 05:46:00,
2013-12-10 00:47:00,32.9,30.8,29.26,West,270,0.0,0.0,92,0.00,,---,0.00,VWS V13.01,2013-12-10 05:47:00,
2013-12-10 00:48:00,32.9,30.8,29.26,West,270,0.0,0.0,92,0.00,,---,0.00,VWS V13.01,2013-12-10 05:48:00,
2013-12-10 00:49:00,32.9,30.8,29.26,West,270,0.0,0.0,92,0.00,,---,0.00,VWS V13.01,2013-12-10 05:49:00,
2013-12-10 00:50:00,32.9,30.8,29.26,West,270,0.0,0.0,92,0.00,,---,0.00,VWS V13.01,2013-12-10 05:50:00,
2013-12-10 00:52:00,32.9,30.8,29.26,West,270,0.0,0.9,92,0.00,,---,0.00,VWS V13.01,2013-12-10 05:52:00,
2013-12-10 00:53:00,32.9,30.8,29.26,West,270,0.0,0.0,92,0.00,,---,0.00,VWS V13.01,2013-12-10 05:53:00,
2013-12-10 00:54:00,32.9,30.8,29.26,West,270,0.0,0.0,92,0.00,,---,0.00,VWS V13.01,2013-12-10 05:54:00,
2013-12-10 00:55:00,32.9,30.8,29.26,West,270,0.0,0.0,92,0.00,,---,0.00,VWS V13.01,2013-12-10 05:55:00,
2013-12-10 00:57:00,32.7,30.7,29.26,West,270,3.6,3.6,92,0.00,,---,0.00,VWS V13.01,2013-12-10 05:57:00,
2013-12-10 00:58:00,32.7,30.7,29.26,West,270,3.6,3.6,92,0.00,,---,0.00,VWS V13.01,2013-12-10 05:58:00,
2013-12-10 00:59:00,32.7,30.7,29.26,West,270,0.0,1.6,92,0.00,,---,0.00,VWS V13.01,2013-12-10 05:59:00,
2013-12-10 01:00:00,32.7,30.7,29.26,NNW,338,1.1,1.1,92,0.00,,---,0.00,VWS V13.01,2013-12-10 06:00:00,
2013-12-10 01:01:00,32.7,30.7,29.26,NNW,338,1.1,1.1,92,0.00,,---,0.00,VWS V13.01,2013-12-10 06:01:00,
2013-12-10 01:03:00,32.7,30.7,29.26,NW,315,1.6,1.6,92,0.00,,---,0.00,VWS V13.01,2013-12-10 06:03:00,
2013-12-10 01:05:00,32.7,30.7,29.26,NW,315,0.0,3.1,92,0.00,,---,0.00,VWS V13.01,2013-12-10 06:05:00,
2013-12-10 01:06:00,32.7,30.7,29.26,WSW,248,3.6,3.6,92,0.00,,---,0.00,VWS V13.01,2013-12-10 06:06:00,
2013-12-10 01:07:00,32.7,30.7,29.26,WSW,248,1.3,3.6,92,0.00,,---,0.00,VWS V13.01,2013-12-10 06:07:00,
2013-12-10 01:09:00,32.7,30.7,29.26,West,270,1.3,1.3,92,0.00,,---,0.00,VWS V13.01,2013-12-10 06:09:00,
2013-12-10 01:11:00,32.7,30.7,29.26,WNW,292,0.9,2.0,92,0.00,,---,0.00,VWS V13.01,2013-12-10 06:11:00,
2013-12-10 01:12:00,32.9,30.8,29.26,NW,315,1.3,1.3,92,0.00,,---,0.00,VWS V13.01,2013-12-10 06:12:00,
2013-12-10 01:13:00,33.1,31.0,29.26,WNW,292,1.3,1.3,92,0.00,,---,0.00,VWS V13.01,2013-12-10 06:13:00,
2013-12-10 01:16:00,33.1,31.0,29.26,WNW,292,0.0,0.0,92,0.00,,---,0.00,VWS V13.01,2013-12-10 06:16:00,
2013-12-10 01:17:00,33.1,31.0,29.26,SW,225,0.0,0.0,92,0.00,,---,0.00,VWS V13.01,2013-12-10 06:17:00,
2013-12-10 01:18:00,33.1,31.0,29.26,SW,225,0.9,0.9,92,0.00,,---,0.00,VWS V13.01,2013-12-10 06:18:00,
2013-12-10 01:19:00,33.1,31.0,29.26,SW,225,0.9,0.9,92,0.00,,---,0.00,VWS V13.01,2013-12-10 06:19:00,
2013-12-10 01:20:00,33.1,31.0,29.26,North,0,0.9,0.9,92,0.00,,---,0.00,VWS V13.01,2013-12-10 06:20:00,
2013-12-10 01:21:00,33.1,31.0,29.26,SSE,158,0.0,0.9,92,0.00,,---,0.00,VWS V13.01,2013-12-10 06:21:00,
2013-12-10 01:24:00,32.9,30.8,29.23,East,90,0.0,0.0,92,0.00,,---,0.00,VWS V13.01,2013-12-10 06:24:00,
2013-12-10 01:25:00,32.9,30.8,29.23,SE,135,0.0,0.0,92,0.00,,---,0.00,VWS V13.01,2013-12-10 06:25:00,
2013-12-10 01:26:00,32.9,30.8,29.23,SSE,158,0.0,0.0,92,0.00,,---,0.00,VWS V13.01,2013-12-10 06:26:00,
2013-12-10 01:29:00,32.7,30.4,29.23,SSW,202,0.0,1.1,91,0.00,,---,0.00,VWS V13.01,2013-12-10 06:29:00,
2013-12-10 01:31:00,32.7,30.4,29.23,SSW,202,0.0,0.0,91,0.00,,---,0.00,VWS V13.01,2013-12-10 06:31:00,
2013-12-10 01:32:00,32.7,30.4,29.23,SSW,202,0.0,0.0,91,0.00,,---,0.00,VWS V13.01,2013-12-10 06:32:00,
2013-12-10 01:33:00,32.7,30.4,29.23,SSW,202,0.0,0.0,91,0.00,,---,0.00,VWS V13.01,2013-12-10 06:33:00,
2013-12-10 01:34:00,32.7,30.4,29.23,SSW,202,0.0,0.9,91,0.00,,---,0.00,VWS V13.01,2013-12-10 06:34:00,
2013-12-10 01:35:00,32.7,30.4,29.23,SSW,202,0.0,0.9,91,0.00,,---,0.00,VWS V13.01,2013-12-10 06:35:00,
2013-12-10 01:37:00,32.7,30.4,29.23,SSW,202,0.0,0.0,91,0.00,,---,0.00,VWS V13.01,2013-12-10 06:37:00,
2013-12-10 01:39:00,32.7,30.4,29.23,SSW,202,0.0,0.0,91,0.00,,---,0.00,VWS V13.01,2013-12-10 06:39:00,
2013-12-10 01:41:00,32.7,30.4,29.23,NNE,22,1.6,1.6,91,0.00,,---,0.00,VWS V13.01,2013-12-10 06:41:00,
2013-12-10 01:43:00,32.7,30.4,29.23,SW,225,0.0,1.6,91,0.00,,---,0.00,VWS V13.01,2013-12-10 06:43:00,
2013-12-10 01:44:00,32.7,30.4,29.23,SW,225,0.0,0.0,91,0.00,,---,0.00,VWS V13.01,2013-12-10 06:44:00,
2013-12-10 01:45:00,32.7,30.4,29.23,SW,225,0.0,0.9,91,0.00,,---,0.00,VWS V13.01,2013-12-10 06:45:00,
2013-12-10 01:46:00,32.7,30.4,29.23,SW,225,0.0,0.0,91,0.00,,---,0.00,VWS V13.01,2013-12-10 06:46:00,
2013-12-10 01:49:00,32.7,30.4,29.23,SW,225,0.0,0.0,91,0.00,,---,0.00,VWS V13.01,2013-12-10 06:49:00,
2013-12-10 01:50:00,32.7,30.4,29.23,SW,225,0.0,0.0,91,0.00,,---,0.00,VWS V13.01,2013-12-10 06:50:00,
2013-12-10 01:51:00,32.7,30.4,29.23,SW,225,0.0,0.0,91,0.00,,---,0.00,VWS V13.01,2013-12-10 06:51:00,
2013-12-10 01:52:00,32.7,30.4,29.23,SW,225,0.0,0.0,91,0.00,,---,0.00,VWS V13.01,2013-12-10 06:52:00,
2013-12-10 01:53:00,32.7,30.4,29.23,SW,225,0.0,0.0,91,0.00,,---,0.00,VWS V13.01,2013-12-10 06:53:00,
2013-12-10 01:56:00,32.4,30.0,29.26,SW,225,0.0,0.0,91,0.00,,---,0.00,VWS V13.01,2013-12-10 06:56:00,
2013-12-10 01:57:00,32.4,30.0,29.26,SW,225,0.0,0.0,91,0.00,,---,0.00,VWS V13.01,2013-12-10 06:57:00,
2013-12-10 01:58:00,32.4,30.0,29.26,SW,225,0.0,0.0,91,0.00,,---,0.00,VWS V13.01,2013-12-10 06:58:00,
2013-12-10 02:00:00,32.4,30.0,29.26,SW,225,0.0,0.0,91,0.00,,---,0.00,VWS V13.01,2013-12-10 07:00:00,
2013-12-10 02:02:00,32.2,29.9,29.26,SW,225,0.0,0.0,91,0.00,,---,0.00,VWS V13.01,2013-12-10 07:02:00,
2013-12-10 02:03:00,32.2,29.9,29.26,SW,225,0.0,0.0,91,0.00,,---,0.00,VWS V13.01,2013-12-10 07:03:00,
2013-12-10 02:05:00,32.2,29.9,29.26,SW,225,0.0,0.0,91,0.00,,---,0.00,VWS V13.01,2013-12-10 07:05:00,
2013-12-10 02:06:00,32.2,29.9,29.26,SW,225,0.0,0.0,91,0.00,,---,0.00,VWS V13.01,2013-12-10 07:06:00,
2013-12-10 02:08:00,32.2,29.9,29.26,SW,225,0.0,0.0,91,0.00,,---,0.00,VWS V13.01,2013-12-10 07:08:00,
2013-12-10 02:09:00,32.2,29.9,29.23,SW,225,1.1,1.1,91,0.00,,---,0.00,VWS V13.01,2013-12-10 07:09:00,
2013-12-10 02:10:00,32.0,29.7,29.23,SW,225,0.0,0.0,91,0.00,,---,0.00,VWS V13.01,2013-12-10 07:10:00,
2013-12-10 02:12:00,31.8,29.5,29.23,SW,225,0.0,0.0,91,0.00,,---,0.00,VWS V13.01,2013-12-10 07:12:00,
2013-12-10 02:13:00,31.8,29.5,29.23,SW,225,0.0,0.0,91,0.00,,---,0.00,VWS V13.01,2013-12-10 07:13:00,
2013-12-10 02:14:00,31.8,29.5,29.23,SW,225,0.0,0.0,91,0.00,,---,0.00,VWS V13.01,2013-12-10 07:14:00,
2013-12-10 02:16:00,31.8,29.5,29.23,SW,225,0.0,0.0,91,0.00,,---,0.00,VWS V13.01,2013-12-10 07:16:00,
2013-12-10 02:19:00,31.8,29.5,29.23,SW,225,0.0,0.0,91,0.00,,---,0.00,VWS V13.01,2013-12-10 07:19:00,
2013-12-10 02:21:00,31.8,29.5,29.23,SW,225,0.0,0.0,91,0.00,,---,0.00,VWS V13.01,2013-12-10 07:21:00,
2013-12-10 02:22:00,31.8,29.5,29.23,SW,225,0.0,0.0,91,0.00,,---,0.00,VWS V13.01,2013-12-10 07:22:00,
2013-12-10 02:24:00,31.6,29.6,29.23,SW,225,0.0,0.0,92,0.00,,---,0.00,VWS V13.01,2013-12-10 07:24:00,
2013-12-10 02:25:00,31.6,29.6,29.23,SW,225,0.0,0.0,92,0.00,,---,0.00,VWS V13.01,2013-12-10 07:25:00,
2013-12-10 02:26:00,31.5,29.4,29.23,SW,225,0.0,0.0,92,0.00,,---,0.00,VWS V13.01,2013-12-10 07:26:00,
2013-12-10 02:28:00,31.5,29.4,29.23,SW,225,0.0,0.0,92,0.00,,---,0.00,VWS V13.01,2013-12-10 07:28:00,
2013-12-10 02:29:00,31.5,29.4,29.23,SW,225,0.0,0.0,92,0.00,,---,0.00,VWS V13.01,2013-12-10 07:29:00,
2013-12-10 02:30:00,31.5,29.4,29.23,SW,225,0.0,0.0,92,0.00,,---,0.00,VWS V13.01,2013-12-10 07:30:00,
2013-12-10 02:32:00,31.5,29.4,29.23,SW,225,0.0,0.0,92,0.00,,---,0.00,VWS V13.01,2013-12-10 07:32:00,
2013-12-10 02:33:00,31.3,29.2,29.23,SW,225,0.0,0.0,92,0.00,,---,0.00,VWS V13.01,2013-12-10 07:33:00,
2013-12-10 02:35:00,31.3,29.2,29.23,SW,225,0.9,0.9,92,0.00,,---,0.00,VWS V13.01,2013-12-10 07:35:00,
2013-12-10 02:39:00,31.3,29.2,29.26,SW,225,0.0,0.0,92,0.00,,---,0.00,VWS V13.01,2013-12-10 07:39:00,
2013-12-10 02:40:00,31.3,29.2,29.26,SW,225,0.0,0.0,92,0.00,,---,0.00,VWS V13.01,2013-12-10 07:40:00,
2013-12-10 02:41:00,31.3,29.2,29.26,SW,225,0.0,0.0,92,0.00,,---,0.00,VWS V13.01,2013-12-10 07:41:00,
2013-12-10 02:42:00,31.3,29.2,29.26,SW,225,0.0,0.0,92,0.00,,---,0.00,VWS V13.01,2013-12-10 07:42:00,
2013-12-10 02:43:00,31.3,29.2,29.26,SW,225,0.0,0.0,92,0.00,,---,0.00,VWS V13.01,2013-12-10 07:43:00,
2013-12-10 02:45:00,31.3,29.2,29.26,SW,225,0.0,0.0,92,0.00,,---,0.00,VWS V13.01,2013-12-10 07:45:00,
2013-12-10 02:46:00,31.3,29.2,29.26,SW,225,0.0,0.0,92,0.00,,---,0.00,VWS V13.01,2013-12-10 07:46:00,
2013-12-10 02:47:00,31.3,29.2,29.26,SW,225,0.0,0.0,92,0.00,,---,0.00,VWS V13.01,2013-12-10 07:47:00,
2013-12-10 02:48:00,31.3,29.2,29.26,SW,225,0.0,0.0,92,0.00,,---,0.00,VWS V13.01,2013-12-10 07:48:00,
2013-12-10 02:49:00,31.3,29.2,29.26,SW,225,0.0,0.0,92,0.00,,---,0.00,VWS V13.01,2013-12-10 07:49:00,
2013-12-10 02:54:00,31.3,29.2,29.23,SW,225,0.0,0.0,92,0.00,,---,0.00,VWS V13.01,2013-12-10 07:54:00,
2013-12-10 02:55:00,31.3,29.2,29.23,SW,225,0.0,0.0,92,0.00,,---,0.00,VWS V13.01,2013-12-10 07:55:00,
2013-12-10 02:59:00,31.1,29.0,29.23,SW,225,0.0,0.0,92,0.00,,---,0.00,VWS V13.01,2013-12-10 07:59:00,
2013-12-10 03:00:00,31.1,29.0,29.23,SW,225,0.0,0.0,92,0.00,,---,0.00,VWS V13.01,2013-12-10 08:00:00,
2013-12-10 03:01:00,31.1,29.0,29.23,SW,225,0.0,0.0,92,0.00,,---,0.00,VWS V13.01,2013-12-10 08:01:00,
2013-12-10 03:02:00,31.1,29.0,29.23,SW,225,0.0,0.0,92,0.00,,---,0.00,VWS V13.01,2013-12-10 08:02:00,
2013-12-10 03:05:00,31.1,29.0,29.23,SW,225,0.0,0.0,92,0.00,,---,0.00,VWS V13.01,2013-12-10 08:05:00,
2013-12-10 03:06:00,31.1,29.0,29.23,SW,225,0.0,0.0,92,0.00,,---,0.00,VWS V13.01,2013-12-10 08:06:00,
2013-12-10 03:07:00,31.1,29.0,29.23,SW,225,0.0,0.0,92,0.00,,---,0.00,VWS V13.01,2013-12-10 08:07:00,
2013-12-10 03:08:00,31.1,29.0,29.23,SW,225,0.0,0.0,92,0.00,,---,0.00,VWS V13.01,2013-12-10 08:08:00,
2013-12-10 03:11:00,31.1,29.0,29.20,SW,225,0.0,0.0,92,0.00,,---,0.00,VWS V13.01,2013-12-10 08:11:00,
2013-12-10 03:12:00,31.1,29.0,29.20,SW,225,0.0,0.0,92,0.00,,---,0.00,VWS V13.01,2013-12-10 08:12:00,
2013-12-10 03:13:00,31.1,29.0,29.20,SW,225,0.0,0.0,92,0.00,,---,0.00,VWS V13.01,2013-12-10 08:13:00,
2013-12-10 03:16:00,31.1,29.0,29.20,SW,225,0.0,0.0,92,0.00,,---,0.00,VWS V13.01,2013-12-10 08:16:00,
2013-12-10 03:17:00,31.1,29.0,29.20,SW,225,0.0,0.0,92,0.00,,---,0.00,VWS V13.01,2013-12-10 08:17:00,
2013-12-10 03:18:00,31.1,29.0,29.20,SW,225,0.0,0.0,92,0.00,,---,0.00,VWS V13.01,2013-12-10 08:18:00,
2013-12-10 03:19:00,31.1,29.0,29.20,SW,225,0.0,0.0,92,0.00,,---,0.00,VWS V13.01,2013-12-10 08:19:00,
2013-12-10 03:20:00,31.1,29.0,29.20,SW,225,0.0,0.0,92,0.00,,---,0.00,VWS V13.01,2013-12-10 08:20:00,
2013-12-10 03:21:00,31.1,29.0,29.20,SW,225,0.0,0.0,92,0.00,,---,0.00,VWS V13.01,2013-12-10 08:21:00,
2013-12-10 03:23:00,31.8,30.0,29.20,SW,225,0.0,0.0,93,0.00,,---,0.00,VWS V13.01,2013-12-10 08:23:00,
2013-12-10 03:24:00,31.8,30.0,29.23,SW,225,0.0,0.0,93,0.00,,---,0.00,VWS V13.01,2013-12-10 08:24:00,
2013-12-10 03:26:00,31.8,30.0,29.23,SW,225,0.0,0.9,93,0.00,,---,0.00,VWS V13.01,2013-12-10 08:26:00,
2013-12-10 03:28:00,31.8,30.0,29.23,SW,225,0.0,0.9,93,0.00,,---,0.00,VWS V13.01,2013-12-10 08:28:00,
2013-12-10 03:29:00,31.8,30.0,29.23,SW,225,0.0,0.0,93,0.00,,---,0.00,VWS V13.01,2013-12-10 08:29:00,
2013-12-10 03:30:00,31.8,30.0,29.23,SW,225,0.0,0.0,93,0.00,,---,0.00,VWS V13.01,2013-12-10 08:30:00,
2013-12-10 03:31:00,31.8,30.0,29.23,SW,225,0.0,0.0,93,0.00,,---,0.00,VWS V13.01,2013-12-10 08:31:00,
2013-12-10 03:32:00,31.8,30.0,29.23,SW,225,0.0,0.0,93,0.00,,---,0.00,VWS V13.01,2013-12-10 08:32:00,
2013-12-10 03:34:00,31.8,30.0,29.23,SW,225,0.0,0.0,93,0.00,,---,0.00,VWS V13.01,2013-12-10 08:34:00,
2013-12-10 03:36:00,31.8,30.0,29.23,SW,225,0.0,0.0,93,0.00,,---,0.00,VWS V13.01,2013-12-10 08:36:00,
2013-12-10 03:38:00,31.8,30.0,29.23,SW,225,0.0,0.0,93,0.00,,---,0.00,VWS V13.01,2013-12-10 08:38:00,
2013-12-10 03:40:00,31.8,30.0,29.23,SW,225,0.0,0.0,93,0.00,,---,0.00,VWS V13.01,2013-12-10 08:40:00,
2013-12-10 03:41:00,31.8,30.0,29.23,SW,225,0.0,0.0,93,0.00,,---,0.00,VWS V13.01,2013-12-10 08:41:00,
2013-12-10 03:42:00,31.8,30.0,29.23,SW,225,0.0,0.0,93,0.00,,---,0.00,VWS V13.01,2013-12-10 08:42:00,
2013-12-10 03:43:00,31.8,30.0,29.23,SW,225,1.3,1.3,93,0.00,,---,0.00,VWS V13.01,2013-12-10 08:43:00,
2013-12-10 03:45:00,31.8,30.0,29.23,SW,225,0.0,0.0,93,0.00,,---,0.00,VWS V13.01,2013-12-10 08:45:00,
2013-12-10 03:46:00,31.8,30.0,29.23,SW,225,0.0,0.0,93,0.00,,---,0.00,VWS V13.01,2013-12-10 08:46:00,
2013-12-10 03:47:00,31.8,30.0,29.23,SW,225,0.0,0.0,93,0.00,,---,0.00,VWS V13.01,2013-12-10 08:47:00,
2013-12-10 03:49:00,31.8,30.0,29.23,SW,225,0.0,0.0,93,0.00,,---,0.00,VWS V13.01,2013-12-10 08:49:00,
2013-12-10 03:51:00,31.8,30.0,29.23,SW,225,0.0,0.0,93,0.00,,---,0.00,VWS V13.01,2013-12-10 08:51:00,
2013-12-10 03:52:00,31.5,29.4,29.23,SW,225,0.0,0.0,92,0.00,,---,0.00,VWS V13.01,2013-12-10 08:52:00,
2013-12-10 03:54:00,31.5,29.4,29.26,SW,225,0.0,0.0,92,0.00,,---,0.00,VWS V13.01,2013-12-10 08:54:00,
2013-12-10 03:55:00,31.5,29.4,29.26,SW,225,0.0,0.0,92,0.00,,---,0.00,VWS V13.01,2013-12-10 08:55:00,
2013-12-10 03:56:00,31.5,29.4,29.26,SW,225,0.0,0.0,92,0.00,,---,0.00,VWS V13.01,2013-12-10 08:56:00,
2013-12-10 03:57:00,31.5,29.4,29.26,SW,225,0.0,0.0,92,0.00,,---,0.00,VWS V13.01,2013-12-10 08:57:00,
2013-12-10 04:00:00,31.5,29.4,29.26,SW,225,0.0,0.0,92,0.00,,---,0.00,VWS V13.01,2013-12-10 09:00:00,
2013-12-10 04:02:00,31.5,29.4,29.26,SW,225,0.0,0.0,92,0.00,,---,0.00,VWS V13.01,2013-12-10 09:02:00,
2013-12-10 04:03:00,31.5,29.4,29.26,SW,225,0.0,0.0,92,0.00,,---,0.00,VWS V13.01,2013-12-10 09:03:00,
2013-12-10 04:04:00,31.5,29.4,29.26,SW,225,0.0,0.0,92,0.00,,---,0.00,VWS V13.01,2013-12-10 09:04:00,
2013-12-10 04:06:00,31.5,29.4,29.26,SW,225,0.0,0.0,92,0.00,,---,0.00,VWS V13.01,2013-12-10 09:06:00,
2013-12-10 04:07:00,31.5,29.4,29.26,SW,225,0.0,0.0,92,0.00,,---,0.00,VWS V13.01,2013-12-10 09:07:00,
2013-12-10 04:09:00,31.5,29.4,29.26,SW,225,0.0,0.0,92,0.00,,---,0.00,VWS V13.01,2013-12-10 09:09:00,
2013-12-10 04:10:00,31.5,29.4,29.26,SW,225,0.0,0.0,92,0.00,,---,0.00,VWS V13.01,2013-12-10 09:10:00,
2013-12-10 04:11:00,31.5,29.4,29.26,SW,225,0.0,0.0,92,0.00,,---,0.00,VWS V13.01,2013-12-10 09:11:00,
2013-12-10 04:13:00,31.6,29.9,29.26,SW,225,0.0,0.0,93,0.00,,---,0.00,VWS V13.01,2013-12-10 09:13:00,
2013-12-10 04:14:00,31.6,29.9,29.26,SW,225,0.0,0.0,93,0.00,,---,0.00,VWS V13.01,2013-12-10 09:14:00,
2013-12-10 04:15:00,31.6,29.9,29.26,SW,225,0.0,0.0,93,0.00,,---,0.00,VWS V13.01,2013-12-10 09:15:00,
2013-12-10 04:16:00,31.6,29.9,29.26,SW,225,0.0,0.0,93,0.00,,---,0.00,VWS V13.01,2013-12-10 09:16:00,
2013-12-10 04:18:00,31.6,29.9,29.26,SW,225,0.0,0.0,93,0.00,,---,0.00,VWS V13.01,2013-12-10 09:18:00,
2013-12-10 04:19:00,31.6,29.9,29.26,SW,225,0.0,0.0,93,0.00,,---,0.00,VWS V13.01,2013-12-10 09:19:00,
2013-12-10 04:20:00,31.6,29.9,29.26,SW,225,0.0,0.0,93,0.00,,---,0.00,VWS V13.01,2013-12-10 09:20:00,
2013-12-10 04:23:00,31.6,29.9,29.29,SW,225,0.0,0.0,93,0.00,,---,0.00,VWS V13.01,2013-12-10 09:23:00,
2013-12-10 04:24:00,31.6,29.9,29.29,SW,225,0.0,0.0,93,0.00,,---,0.00,VWS V13.01,2013-12-10 09:24:00,
2013-12-10 04:25:00,31.6,29.9,29.29,SW,225,0.0,0.0,93,0.00,,---,0.00,VWS V13.01,2013-12-10 09:25:00,
2013-12-10 04:26:00,31.6,29.9,29.29,SW,225,0.0,0.0,93,0.00,,---,0.00,VWS V13.01,2013-12-10 09:26:00,
2013-12-10 04:30:00,31.6,29.9,29.29,SW,225,0.0,0.0,93,0.00,,---,0.00,VWS V13.01,2013-12-10 09:30:00,
2013-12-10 04:31:00,31.6,29.9,29.29,SW,225,2.0,2.0,93,0.00,,---,0.00,VWS V13.01,2013-12-10 09:31:00,
2013-12-10 04:34:00,31.6,29.9,29.29,SW,225,0.0,0.0,93,0.00,,---,0.00,VWS V13.01,2013-12-10 09:34:00,
2013-12-10 04:35:00,31.6,29.9,29.29,SW,225,0.0,0.0,93,0.00,,---,0.00,VWS V13.01,2013-12-10 09:35:00,
2013-12-10 04:37:00,31.6,29.9,29.29,SW,225,0.0,0.0,93,0.00,,---,0.00,VWS V13.01,2013-12-10 09:37:00,
2013-12-10 04:39:00,31.6,29.9,29.29,SW,225,0.9,0.9,93,0.00,,---,0.00,VWS V13.01,2013-12-10 09:39:00,
2013-12-10 04:41:00,32.2,30.4,29.29,SW,225,0.0,0.9,93,0.00,,---,0.00,VWS V13.01,2013-12-10 09:41:00,
2013-12-10 04:42:00,32.2,30.4,29.29,SW,225,0.0,0.0,93,0.00,,---,0.00,VWS V13.01,2013-12-10 09:42:00,
2013-12-10 04:44:00,32.4,30.6,29.29,SW,225,0.0,0.0,93,0.00,,---,0.00,VWS V13.01,2013-12-10 09:44:00,
2013-12-10 04:46:00,32.4,30.6,29.29,SW,225,1.1,1.1,93,0.00,,---,0.00,VWS V13.01,2013-12-10 09:46:00,
2013-12-10 04:47:00,32.4,30.6,29.29,SW,225,2.0,2.0,93,0.00,,---,0.00,VWS V13.01,2013-12-10 09:47:00,
2013-12-10 04:49:00,32.4,30.6,29.29,NW,315,0.0,0.0,93,0.00,,---,0.00,VWS V13.01,2013-12-10 09:49:00,
2013-12-10 04:52:00,32.4,30.6,29.29,WSW,248,0.0,0.0,93,0.00,,---,0.00,VWS V13.01,2013-12-10 09:52:00,
2013-12-10 04:53:00,32.4,30.6,29.29,NW,315,0.0,0.0,93,0.00,,---,0.00,VWS V13.01,2013-12-10 09:53:00,
2013-12-10 04:54:00,32.4,30.6,29.29,WNW,292,0.0,0.0,93,0.00,,---,0.00,VWS V13.01,2013-12-10 09:54:00,
2013-12-10 04:55:00,32.4,30.6,29.29,SW,225,1.3,1.3,93,0.00,,---,0.00,VWS V13.01,2013-12-10 09:55:00,
2013-12-10 04:56:00,32.4,30.6,29.29,SW,225,0.0,1.3,93,0.00,,---,0.00,VWS V13.01,2013-12-10 09:56:00,
2013-12-10 04:59:00,32.4,30.6,29.29,West,270,0.0,0.0,93,0.00,,---,0.00,VWS V13.01,2013-12-10 09:59:00,
2013-12-10 05:01:00,32.4,30.6,29.29,NW,315,0.9,0.9,93,0.00,,---,0.00,VWS V13.01,2013-12-10 10:01:00,
2013-12-10 05:03:00,32.4,30.6,29.29,NW,315,0.9,0.9,93,0.00,,---,0.00,VWS V13.01,2013-12-10 10:03:00,
2013-12-10 05:04:00,32.4,30.6,29.29,WNW,292,0.0,0.9,93,0.00,,---,0.00,VWS V13.01,2013-12-10 10:04:00,
2013-12-10 05:05:00,32.4,30.6,29.29,WNW,292,0.0,0.0,93,0.00,,---,0.00,VWS V13.01,2013-12-10 10:05:00,
2013-12-10 05:07:00,33.3,30.9,29.29,WNW,292,0.0,0.0,91,0.00,,---,0.00,VWS V13.01,2013-12-10 10:07:00,
2013-12-10 05:08:00,33.3,30.9,29.29,WNW,292,0.0,0.0,91,0.00,,---,0.00,VWS V13.01,2013-12-10 10:08:00,
2013-12-10 05:09:00,33.3,30.9,29.29,NE,45,0.0,0.0,91,0.00,,---,0.00,VWS V13.01,2013-12-10 10:09:00,
2013-12-10 05:10:00,33.3,30.9,29.29,ENE,68,0.0,0.0,91,0.00,,---,0.00,VWS V13.01,2013-12-10 10:10:00,
2013-12-10 05:12:00,33.3,30.9,29.29,East,90,0.0,1.1,91,0.00,,---,0.00,VWS V13.01,2013-12-10 10:12:00,
2013-12-10 05:14:00,33.3,30.9,29.29,SSE,158,0.0,0.0,91,0.00,,---,0.00,VWS V13.01,2013-12-10 10:14:00,
2013-12-10 05:15:00,33.3,30.9,29.29,SSE,158,0.0,0.0,91,0.00,,---,0.00,VWS V13.01,2013-12-10 10:15:00,
2013-12-10 05:16:00,33.3,30.9,29.29,SSE,158,0.0,0.0,91,0.00,,---,0.00,VWS V13.01,2013-12-10 10:16:00,
2013-12-10 05:17:00,33.3,30.9,29.29,SSE,158,0.0,0.0,91,0.00,,---,0.00,VWS V13.01,2013-12-10 10:17:00,
2013-12-10 05:19:00,33.3,30.9,29.29,ENE,68,0.0,0.0,91,0.00,,---,0.00,VWS V13.01,2013-12-10 10:19:00,
2013-12-10 05:20:00,33.3,30.9,29.29,NE,45,1.6,1.6,91,0.00,,---,0.00,VWS V13.01,2013-12-10 10:20:00,
2013-12-10 05:22:00,33.3,30.9,29.29,NE,45,1.6,1.6,91,0.00,,---,0.00,VWS V13.01,2013-12-10 10:22:00,
2013-12-10 05:23:00,33.3,30.9,29.29,NE,45,1.1,1.6,91,0.00,,---,0.00,VWS V13.01,2013-12-10 10:23:00,
2013-12-10 05:24:00,33.3,30.9,29.26,North,0,1.3,1.3,91,0.00,,---,0.00,VWS V13.01,2013-12-10 10:24:00,
2013-12-10 05:25:00,33.3,30.9,29.26,NNW,338,1.1,1.3,91,0.00,,---,0.00,VWS V13.01,2013-12-10 10:25:00,
2013-12-10 05:28:00,33.3,30.9,29.26,NNW,338,0.9,2.0,91,0.00,,---,0.00,VWS V13.01,2013-12-10 10:28:00,
2013-12-10 05:29:00,33.6,30.5,29.26,NNE,22,0.0,2.0,88,0.00,,---,0.00,VWS V13.01,2013-12-10 10:29:00,
2013-12-10 05:30:00,33.6,30.5,29.26,NNE,22,0.0,0.0,88,0.00,,---,0.00,VWS V13.01,2013-12-10 10:30:00,
2013-12-10 05:31:00,33.6,30.5,29.26,NNE,22,0.0,0.0,88,0.00,,---,0.00,VWS V13.01,2013-12-10 10:31:00,
2013-12-10 05:33:00,33.6,30.5,29.26,North,0,1.6,1.6,88,0.00,,---,0.00,VWS V13.01,2013-12-10 10:33:00,
2013-12-10 05:34:00,33.6,30.5,29.26,North,0,0.0,1.6,88,0.00,,---,0.00,VWS V13.01,2013-12-10 10:34:00,
2013-12-10 05:35:00,33.6,30.5,29.26,NE,45,2.2,2.2,88,0.00,,---,0.00,VWS V13.01,2013-12-10 10:35:00,
2013-12-10 05:36:00,33.6,30.5,29.26,NNW,338,0.0,2.2,88,0.00,,---,0.00,VWS V13.01,2013-12-10 10:36:00,
2013-12-10 05:37:00,33.6,30.2,29.26,NNW,338,0.0,0.0,87,0.00,,---,0.00,VWS V13.01,2013-12-10 10:37:00,
2013-12-10 05:40:00,33.6,30.2,29.23,West,270,0.0,0.0,87,0.00,,---,0.00,VWS V13.01,2013-12-10 10:40:00,
2013-12-10 05:41:00,33.6,30.2,29.23,West,270,0.0,0.0,87,0.00,,---,0.00,VWS V13.01,2013-12-10 10:41:00,
2013-12-10 05:42:00,33.6,30.2,29.23,West,270,0.0,0.0,87,0.00,,---,0.00,VWS V13.01,2013-12-10 10:42:00,
2013-12-10 05:43:00,33.6,30.2,29.23,SW,225,0.0,0.0,87,0.00,,---,0.00,VWS V13.01,2013-12-10 10:43:00,
2013-12-10 05:47:00,33.6,30.2,29.23,SW,225,0.0,0.0,87,0.00,,---,0.00,VWS V13.01,2013-12-10 10:47:00,
2013-12-10 05:48:00,33.6,30.2,29.23,SW,225,0.0,0.0,87,0.00,,---,0.00,VWS V13.01,2013-12-10 10:48:00,
2013-12-10 05:49:00,33.6,30.2,29.23,SW,225,0.0,0.0,87,0.00,,---,0.00,VWS V13.01,2013-12-10 10:49:00,
2013-12-10 05:53:00,33.6,30.2,29.23,SW,225,0.0,0.0,87,0.00,,---,0.00,VWS V13.01,2013-12-10 10:53:00,
2013-12-10 05:54:00,33.6,30.2,29.23,SW,225,0.0,0.0,87,0.00,,---,0.00,VWS V13.01,2013-12-10 10:54:00,
2013-12-10 05:55:00,33.6,30.2,29.23,SW,225,0.0,0.0,87,0.00,,---,0.00,VWS V13.01,2013-12-10 10:55:00,
2013-12-10 05:58:00,33.6,30.2,29.23,East,90,0.0,0.0,87,0.00,,---,0.00,VWS V13.01,2013-12-10 10:58:00,
2013-12-10 05:59:00,33.6,30.2,29.23,East,90,0.0,0.0,87,0.00,,---,0.00,VWS V13.01,2013-12-10 10:59:00,
2013-12-10 06:00:00,33.6,30.2,29.23,East,90,0.0,0.0,87,0.00,,---,0.00,VWS V13.01,2013-12-10 11:00:00,
2013-12-10 06:03:00,33.6,30.2,29.23,East,90,0.0,0.0,87,0.00,,---,0.00,VWS V13.01,2013-12-10 11:03:00,
2013-12-10 06:04:00,33.6,30.2,29.23,East,90,0.0,0.0,87,0.00,,---,0.00,VWS V13.01,2013-12-10 11:04:00,
2013-12-10 06:05:00,33.6,30.2,29.23,East,90,0.0,0.0,87,0.00,,---,0.00,VWS V13.01,2013-12-10 11:05:00,
2013-12-10 06:09:00,33.6,30.2,29.23,East,90,0.0,0.0,87,0.00,,---,0.00,VWS V13.01,2013-12-10 11:09:00,
2013-12-10 06:10:00,33.6,30.2,29.20,ENE,68,1.3,1.3,87,0.00,,---,0.00,VWS V13.01,2013-12-10 11:10:00,
2013-12-10 06:11:00,33.6,30.2,29.20,ENE,68,1.3,1.3,87,0.00,,---,0.00,VWS V13.01,2013-12-10 11:11:00,
2013-12-10 06:12:00,33.6,30.2,29.20,North,0,0.0,1.3,87,0.00,,---,0.00,VWS V13.01,2013-12-10 11:12:00,
2013-12-10 06:17:00,33.6,30.2,29.20,NE,45,1.6,1.6,87,0.00,,---,0.00,VWS V13.01,2013-12-10 11:17:00,
2013-12-10 06:18:00,33.6,30.2,29.20,NE,45,0.9,1.6,87,0.00,,---,0.00,VWS V13.01,2013-12-10 11:18:00,
2013-12-10 06:20:00,33.6,29.6,29.20,East,90,1.1,1.3,85,0.00,,---,0.00,VWS V13.01,2013-12-10 11:20:00,
2013-12-10 06:21:00,33.6,29.6,29.20,NE,45,0.0,1.1,85,0.00,,---,0.00,VWS V13.01,2013-12-10 11:21:00,
2013-12-10 06:22:00,33.6,29.6,29.20,NE,45,0.0,0.0,85,0.00,,---,0.00,VWS V13.01,2013-12-10 11:22:00,
2013-12-10 06:24:00,33.6,29.6,29.20,East,90,0.0,0.0,85,0.00,,---,0.00,VWS V13.01,2013-12-10 11:24:00,
2013-12-10 06:25:00,33.6,29.6,29.20,SW,225,2.0,2.0,85,0.00,,---,0.00,VWS V13.01,2013-12-10 11:25:00,
2013-12-10 06:26:00,33.6,29.6,29.20,West,270,0.0,0.0,85,0.00,,---,0.00,VWS V13.01,2013-12-10 11:26:00,
2013-12-10 06:28:00,33.6,29.6,29.20,SW,225,0.0,0.0,85,0.00,,---,0.00,VWS V13.01,2013-12-10 11:28:00,
2013-12-10 06:29:00,33.8,29.5,29.20,SW,225,0.0,0.0,84,0.00,,---,0.00,VWS V13.01,2013-12-10 11:29:00,
2013-12-10 06:31:00,33.8,29.5,29.20,SSE,158,0.0,0.0,84,0.00,,---,0.00,VWS V13.01,2013-12-10 11:31:00,
2013-12-10 06:32:00,33.8,29.5,29.20,SSE,158,0.0,0.0,84,0.00,,---,0.00,VWS V13.01,2013-12-10 11:32:00,
2013-12-10 06:33:00,33.8,29.5,29.20,South,180,0.0,0.0,84,0.00,,---,0.00,VWS V13.01,2013-12-10 11:33:00,
2013-12-10 06:34:00,33.8,29.5,29.20,SSW,202,1.1,1.1,84,0.00,,---,0.00,VWS V13.01,2013-12-10 11:34:00,
2013-12-10 06:35:00,33.8,29.5,29.20,SSW,202,1.1,1.1,84,0.00,,---,0.00,VWS V13.01,2013-12-10 11:35:00,
2013-12-10 06:36:00,33.8,29.5,29.20,SSW,202,2.2,2.2,84,0.00,,---,0.00,VWS V13.01,2013-12-10 11:36:00,
2013-12-10 06:39:00,33.8,29.5,29.26,SW,225,0.0,2.9,84,0.00,,---,0.00,VWS V13.01,2013-12-10 11:39:00,
2013-12-10 06:40:00,33.8,29.5,29.26,SSW,202,0.0,0.0,84,0.00,,---,0.00,VWS V13.01,2013-12-10 11:40:00,
2013-12-10 06:44:00,33.8,29.5,29.26,WSW,248,0.0,0.0,84,0.00,,---,0.00,VWS V13.01,2013-12-10 11:44:00,
2013-12-10 06:45:00,33.8,29.5,29.26,WSW,248,0.0,0.0,84,0.00,,---,0.00,VWS V13.01,2013-12-10 11:45:00,
2013-12-10 06:46:00,33.8,29.5,29.26,West,270,2.0,2.0,84,0.00,,---,0.00,VWS V13.01,2013-12-10 11:46:00,
2013-12-10 06:47:00,33.8,29.5,29.26,SSW,202,1.1,2.0,84,0.00,,---,0.00,VWS V13.01,2013-12-10 11:47:00,
2013-12-10 06:50:00,33.8,29.5,29.26,SSW,202,2.7,2.7,84,0.00,,---,0.00,VWS V13.01,2013-12-10 11:50:00,
2013-12-10 06:52:00,33.8,29.5,29.26,WSW,248,0.9,2.7,84,0.00,,---,0.00,VWS V13.01,2013-12-10 11:52:00,
2013-12-10 06:53:00,33.8,29.5,29.26,WNW,292,2.5,2.5,84,0.00,,---,0.00,VWS V13.01,2013-12-10 11:53:00,
2013-12-10 06:55:00,34.0,29.7,29.26,West,270,2.0,2.0,84,0.00,,---,0.00,VWS V13.01,2013-12-10 11:55:00,
2013-12-10 06:57:00,34.0,29.7,29.26,NW,315,0.0,1.1,84,0.00,,---,0.00,VWS V13.01,2013-12-10 11:57:00,
2013-12-10 07:00:00,34.0,29.7,29.26,WSW,248,0.0,0.0,84,0.00,,---,0.00,VWS V13.01,2013-12-10 12:00:00,
2013-12-10 07:01:00,34.0,29.7,29.26,WSW,248,0.0,0.0,84,0.00,,---,0.00,VWS V13.01,2013-12-10 12:01:00,
2013-12-10 07:02:00,34.0,29.7,29.26,WSW,248,0.0,0.0,84,0.00,,---,0.00,VWS V13.01,2013-12-10 12:02:00,
2013-12-10 07:05:00,34.0,29.7,29.26,NW,315,0.9,0.9,84,0.00,,---,0.00,VWS V13.01,2013-12-10 12:05:00,
2013-12-10 07:06:00,34.0,29.7,29.26,West,270,2.0,2.0,84,0.00,,---,0.00,VWS V13.01,2013-12-10 12:06:00,
2013-12-10 07:07:00,34.0,29.7,29.26,East,90,1.1,2.0,84,0.00,,---,0.00,VWS V13.01,2013-12-10 12:07:00,
2013-12-10 07:09:00,34.2,29.5,29.29,ESE,112,0.0,0.0,83,0.00,,---,0.00,VWS V13.01,2013-12-10 12:09:00,
2013-12-10 07:10:00,34.2,29.5,29.29,WNW,292,2.0,2.0,83,0.00,,---,0.00,VWS V13.01,2013-12-10 12:10:00,
2013-12-10 07:11:00,34.2,29.5,29.29,SW,225,0.0,2.0,83,0.00,,---,0.00,VWS V13.01,2013-12-10 12:11:00,
2013-12-10 07:13:00,34.2,29.5,29.29,WSW,248,0.9,0.9,83,0.00,,---,0.00,VWS V13.01,2013-12-10 12:13:00,
2013-12-10 07:14:00,34.2,29.5,29.29,WSW,248,0.9,0.9,83,0.00,,---,0.00,VWS V13.01,2013-12-10 12:14:00,
2013-12-10 07:18:00,34.2,29.5,29.29,WSW,248,0.0,0.0,83,0.00,,---,0.00,VWS V13.01,2013-12-10 12:18:00,
2013-12-10 07:19:00,34.2,29.5,29.29,ESE,112,0.0,0.0,83,0.00,,---,0.00,VWS V13.01,2013-12-10 12:19:00,
2013-12-10 07:20:00,34.2,29.5,29.29,ESE,112,0.0,0.0,83,0.00,,---,0.00,VWS V13.01,2013-12-10 12:20:00,
2013-12-10 07:21:00,34.2,29.5,29.29,East,90,0.0,0.0,83,0.00,,---,0.00,VWS V13.01,2013-12-10 12:21:00,
2013-12-10 07:24:00,34.0,29.4,29.26,West,270,0.9,0.9,83,0.00,,---,0.00,VWS V13.01,2013-12-10 12:24:00,
2013-12-10 07:25:00,34.0,29.4,29.26,WNW,292,0.9,0.9,83,0.00,,---,0.00,VWS V13.01,2013-12-10 12:25:00,
2013-12-10 07:26:00,34.0,29.4,29.26,SSW,202,0.0,1.6,83,0.00,,---,0.00,VWS V13.01,2013-12-10 12:26:00,
2013-12-10 07:27:00,34.0,29.4,29.26,SSW,202,0.9,0.9,83,0.00,,---,0.00,VWS V13.01,2013-12-10 12:27:00,
2013-12-10 07:28:00,34.0,29.4,29.26,SSW,202,0.9,0.9,83,0.00,,---,0.00,VWS V13.01,2013-12-10 12:28:00,
2013-12-10 07:31:00,34.0,29.4,29.26,SSE,158,0.0,0.0,83,0.00,,---,0.00,VWS V13.01,2013-12-10 12:31:00,
2013-12-10 07:32:00,34.0,29.4,29.26,SE,135,0.0,0.0,83,0.00,,---,0.00,VWS V13.01,2013-12-10 12:32:00,
2013-12-10 07:33:00,34.0,29.4,29.26,East,90,0.9,0.9,83,0.00,,---,0.00,VWS V13.01,2013-12-10 12:33:00,
2013-12-10 07:34:00,34.0,29.4,29.26,East,90,0.0,0.9,83,0.00,,---,0.00,VWS V13.01,2013-12-10 12:34:00,
2013-12-10 07:35:00,34.0,29.4,29.26,East,90,0.9,0.9,83,0.00,,---,0.00,VWS V13.01,2013-12-10 12:35:00,
2013-12-10 07:36:00,34.0,29.4,29.26,East,90,0.0,0.9,83,0.00,,---,0.00,VWS V13.01,2013-12-10 12:36:00,
2013-12-10 07:37:00,34.0,29.4,29.26,East,90,0.0,0.0,83,0.00,,---,0.00,VWS V13.01,2013-12-10 12:37:00,
2013-12-10 07:40:00,34.0,29.4,29.26,East,90,0.0,0.0,83,0.00,,---,0.00,VWS V13.01,2013-12-10 12:40:00,
2013-12-10 07:42:00,34.0,29.4,29.26,East,90,0.0,0.0,83,0.00,,---,0.00,VWS V13.01,2013-12-10 12:42:00,
2013-12-10 07:43:00,34.0,29.4,29.26,East,90,0.0,0.0,83,0.00,,---,0.00,VWS V13.01,2013-12-10 12:43:00,
2013-12-10 07:44:00,34.0,29.4,29.26,East,90,0.0,0.0,83,0.00,,---,0.00,VWS V13.01,2013-12-10 12:44:00,
2013-12-10 07:45:00,33.8,29.8,29.26,East,90,0.0,0.0,85,0.00,,---,0.00,VWS V13.01,2013-12-10 12:45:00,
2013-12-10 07:47:00,33.8,29.8,29.26,East,90,0.0,0.0,85,0.00,,---,0.00,VWS V13.01,2013-12-10 12:47:00,
2013-12-10 07:48:00,33.8,29.8,29.26,WNW,292,0.0,0.0,85,0.00,,---,0.00,VWS V13.01,2013-12-10 12:48:00,
2013-12-10 07:50:00,33.8,29.8,29.26,WNW,292,0.0,0.0,85,0.00,,---,0.00,VWS V13.01,2013-12-10 12:50:00,
2013-12-10 07:52:00,33.8,29.8,29.26,SW,225,0.0,0.0,85,0.00,,---,0.00,VWS V13.01,2013-12-10 12:52:00,
2013-12-10 07:53:00,33.8,29.8,29.26,SW,225,0.0,0.0,85,0.00,,---,0.00,VWS V13.01,2013-12-10 12:53:00,
2013-12-10 07:54:00,33.8,29.8,29.26,WSW,248,0.9,0.9,85,0.00,,---,0.00,VWS V13.01,2013-12-10 12:54:00,
2013-12-10 07:57:00,33.8,29.8,29.26,SSE,158,0.0,0.0,85,0.00,,---,0.00,VWS V13.01,2013-12-10 12:57:00,
2013-12-10 07:59:00,33.8,29.8,29.26,SW,225,0.0,0.0,85,0.00,,---,0.00,VWS V13.01,2013-12-10 12:59:00,
2013-12-10 08:00:00,33.8,29.8,29.26,SW,225,0.9,0.9,85,0.00,,---,0.00,VWS V13.01,2013-12-10 13:00:00,
2013-12-10 08:01:00,33.8,29.8,29.26,SW,225,0.9,0.9,85,0.00,,---,0.00,VWS V13.01,2013-12-10 13:01:00,
2013-12-10 08:03:00,33.8,29.8,29.26,SW,225,0.0,0.0,85,0.00,,---,0.00,VWS V13.01,2013-12-10 13:03:00,
2013-12-10 08:05:00,33.8,29.8,29.26,SW,225,0.0,0.0,85,0.00,,---,0.00,VWS V13.01,2013-12-10 13:05:00,
2013-12-10 08:06:00,33.8,29.8,29.26,South,180,0.0,0.0,85,0.00,,---,0.00,VWS V13.01,2013-12-10 13:06:00,
2013-12-10 08:07:00,33.8,29.8,29.26,SSE,158,0.0,0.0,85,0.00,,---,0.00,VWS V13.01,2013-12-10 13:07:00,
2013-12-10 08:10:00,33.6,30.2,29.26,SSE,158,0.0,0.0,87,0.00,,---,0.00,VWS V13.01,2013-12-10 13:10:00,
2013-12-10 08:12:00,33.6,30.2,29.26,SSE,158,0.0,0.0,87,0.00,,---,0.00,VWS V13.01,2013-12-10 13:12:00,
2013-12-10 08:13:00,33.6,30.2,29.26,SSE,158,0.0,0.0,87,0.00,,---,0.00,VWS V13.01,2013-12-10 13:13:00,
2013-12-10 08:14:00,33.6,30.2,29.26,SSE,158,0.0,0.0,87,0.00,,---,0.00,VWS V13.01,2013-12-10 13:14:00,
2013-12-10 08:15:00,33.6,30.5,29.26,SSE,158,0.0,0.0,88,0.00,,---,0.00,VWS V13.01,2013-12-10 13:15:00,
2013-12-10 08:17:00,33.6,30.5,29.26,SSE,158,0.0,0.0,88,0.00,,---,0.00,VWS V13.01,2013-12-10 13:17:00,
2013-12-10 08:18:00,33.6,30.5,29.26,SSE,158,0.0,0.0,88,0.00,,---,0.00,VWS V13.01,2013-12-10 13:18:00,
2013-12-10 08:19:00,33.6,30.5,29.26,SSE,158,0.0,0.0,88,0.00,,---,0.00,VWS V13.01,2013-12-10 13:19:00,
2013-12-10 08:20:00,33.6,30.5,29.26,SSE,158,0.0,0.0,88,0.00,,---,0.00,VWS V13.01,2013-12-10 13:20:00,
2013-12-10 08:21:00,33.6,30.5,29.26,SSE,158,0.0,0.0,88,0.00,,---,0.00,VWS V13.01,2013-12-10 13:21:00,
2013-12-10 08:23:00,33.6,30.5,29.26,SSE,158,0.0,0.0,88,0.00,,---,0.00,VWS V13.01,2013-12-10 13:23:00,
2013-12-10 08:25:00,33.6,30.5,29.26,SSE,158,0.0,0.0,88,0.00,,---,0.00,VWS V13.01,2013-12-10 13:25:00,
2013-12-10 08:27:00,33.6,30.5,29.23,SSE,158,0.0,0.0,88,0.00,,---,0.00,VWS V13.01,2013-12-10 13:27:00,
2013-12-10 08:29:00,33.6,30.5,29.23,SSE,158,0.0,0.0,88,0.00,,---,0.00,VWS V13.01,2013-12-10 13:29:00,
2013-12-10 08:30:00,33.6,30.5,29.23,SSE,158,0.0,0.0,88,0.00,,---,0.00,VWS V13.01,2013-12-10 13:30:00,
2013-12-10 08:33:00,33.6,30.5,29.23,SSE,158,0.0,0.0,88,0.00,,---,0.00,VWS V13.01,2013-12-10 13:33:00,
2013-12-10 08:34:00,33.6,30.5,29.23,SSE,158,0.0,0.0,88,0.00,,---,0.00,VWS V13.01,2013-12-10 13:34:00,
2013-12-10 08:35:00,33.6,30.5,29.23,SSE,158,0.0,0.0,88,0.00,,---,0.00,VWS V13.01,2013-12-10 13:35:00,
2013-12-10 08:36:00,33.6,30.5,29.23,SSE,158,0.0,0.0,88,0.00,,---,0.00,VWS V13.01,2013-12-10 13:36:00,
2013-12-10 08:40:00,33.6,30.7,29.23,SSE,158,0.0,0.0,89,0.00,,---,0.00,VWS V13.01,2013-12-10 13:40:00,
2013-12-10 08:41:00,33.6,30.7,29.23,SSE,158,0.0,0.0,89,0.00,,---,0.00,VWS V13.01,2013-12-10 13:41:00,
2013-12-10 08:42:00,33.6,30.7,29.23,SSE,158,0.0,0.0,89,0.00,,---,0.00,VWS V13.01,2013-12-10 13:42:00,
2013-12-10 08:43:00,33.6,30.7,29.23,SSE,158,0.0,0.0,89,0.00,,---,0.00,VWS V13.01,2013-12-10 13:43:00,
2013-12-10 08:44:00,33.6,30.7,29.23,SSE,158,0.0,0.0,89,0.00,,---,0.00,VWS V13.01,2013-12-10 13:44:00,
2013-12-10 08:46:00,33.6,30.7,29.23,SSE,158,0.0,0.0,89,0.00,,---,0.00,VWS V13.01,2013-12-10 13:46:00,
2013-12-10 08:47:00,33.6,30.7,29.23,SSE,158,0.0,0.0,89,0.00,,---,0.00,VWS V13.01,2013-12-10 13:47:00,
2013-12-10 08:50:00,33.6,30.7,29.23,SSE,158,0.0,0.9,89,0.00,,---,0.00,VWS V13.01,2013-12-10 13:50:00,
2013-12-10 08:51:00,33.6,30.7,29.23,SSE,158,1.3,1.3,89,0.00,,---,0.00,VWS V13.01,2013-12-10 13:51:00,
2013-12-10 08:52:00,33.6,30.7,29.23,SSE,158,1.1,1.3,89,0.00,,---,0.00,VWS V13.01,2013-12-10 13:52:00,
2013-12-10 08:53:00,33.6,30.7,29.23,SSE,158,0.0,1.1,89,0.00,,---,0.00,VWS V13.01,2013-12-10 13:53:00,
2013-12-10 08:54:00,33.6,30.7,29.23,SSE,158,0.0,0.0,89,0.00,,---,0.00,VWS V13.01,2013-12-10 13:54:00,
2013-12-10 08:56:00,33.6,30.7,29.23,SSE,158,0.0,0.0,89,0.00,,---,0.00,VWS V13.01,2013-12-10 13:56:00,
2013-12-10 08:57:00,33.6,30.7,29.23,SSE,158,0.0,0.0,89,0.00,,---,0.00,VWS V13.01,2013-12-10 13:57:00,
2013-12-10 08:58:00,33.6,30.7,29.23,SSE,158,0.0,0.0,89,0.00,,---,0.00,VWS V13.01,2013-12-10 13:58:00,
2013-12-10 08:59:00,33.6,30.7,29.23,SSE,158,0.0,0.0,89,0.00,,---,0.00,VWS V13.01,2013-12-10 13:59:00,
2013-12-10 09:00:00,33.6,30.7,29.23,SSE,158,0.0,0.0,89,0.00,,---,0.00,VWS V13.01,2013-12-10 14:00:00,
2013-12-10 09:01:00,33.6,30.7,29.26,SSE,158,0.0,0.0,89,0.00,,---,0.00,VWS V13.01,2013-12-10 14:01:00,
2013-12-10 09:03:00,33.6,30.7,29.26,SSE,158,0.0,0.0,89,0.00,,---,0.00,VWS V13.01,2013-12-10 14:03:00,
2013-12-10 09:04:00,33.6,30.7,29.26,SSE,158,0.0,0.0,89,0.00,,---,0.00,VWS V13.01,2013-12-10 14:04:00,
2013-12-10 09:05:00,33.6,30.7,29.26,SSE,158,0.0,0.0,89,0.00,,---,0.00,VWS V13.01,2013-12-10 14:05:00,
2013-12-10 09:06:00,33.6,30.7,29.26,SSE,158,0.0,0.0,89,0.00,,---,0.00,VWS V13.01,2013-12-10 14:06:00,
2013-12-10 09:08:00,33.6,30.7,29.26,SSE,158,0.0,0.0,89,0.00,,---,0.00,VWS V13.01,2013-12-10 14:08:00,
2013-12-10 09:10:00,33.6,30.7,29.23,SSE,158,0.0,0.0,89,0.00,,---,0.00,VWS V13.01,2013-12-10 14:10:00,
2013-12-10 09:11:00,33.6,30.7,29.23,SSE,158,0.0,0.0,89,0.00,,---,0.00,VWS V13.01,2013-12-10 14:11:00,
2013-12-10 09:13:00,33.6,30.7,29.23,SSE,158,0.0,0.0,89,0.00,,---,0.00,VWS V13.01,2013-12-10 14:13:00,
2013-12-10 09:14:00,33.6,30.7,29.23,SSE,158,0.0,0.0,89,0.00,,---,0.00,VWS V13.01,2013-12-10 14:14:00,
2013-12-10 09:15:00,33.6,30.7,29.23,SSE,158,0.0,0.0,89,0.00,,---,0.00,VWS V13.01,2013-12-10 14:15:00,
2013-12-10 09:18:00,33.6,30.7,29.23,SSE,158,0.0,0.0,89,0.00,,---,0.00,VWS V13.01,2013-12-10 14:18:00,
2013-12-10 09:19:00,33.6,30.7,29.23,SSE,158,0.0,0.0,89,0.00,,---,0.00,VWS V13.01,2013-12-10 14:19:00,
2013-12-10 09:21:00,33.6,30.7,29.23,SSE,158,0.0,0.0,89,0.00,,---,0.00,VWS V13.01,2013-12-10 14:21:00,
2013-12-10 09:23:00,33.6,30.7,29.23,SSE,158,0.0,0.0,89,0.00,,---,0.00,VWS V13.01,2013-12-10 14:23:00,
2013-12-10 09:25:00,33.6,30.7,29.23,SSE,158,0.0,0.0,89,0.00,,---,0.00,VWS V13.01,2013-12-10 14:25:00,
2013-12-10 09:26:00,33.6,30.7,29.23,SSE,158,0.0,0.0,89,0.00,,---,0.00,VWS V13.01,2013-12-10 14:26:00,
2013-12-10 09:28:00,33.6,30.7,29.23,SSE,158,0.0,0.0,89,0.00,,---,0.00,VWS V13.01,2013-12-10 14:28:00,
2013-12-10 09:29:00,33.6,30.7,29.23,SSE,158,0.0,0.0,89,0.00,,---,0.00,VWS V13.01,2013-12-10 14:29:00,
2013-12-10 09:31:00,33.8,30.9,29.23,SSE,158,0.0,0.0,89,0.00,,---,0.00,VWS V13.01,2013-12-10 14:31:00,
2013-12-10 09:32:00,33.8,30.9,29.23,SSE,158,0.0,0.0,89,0.00,,---,0.00,VWS V13.01,2013-12-10 14:32:00,
2013-12-10 09:33:00,34.0,31.1,29.23,SSE,158,0.0,0.0,89,0.00,,---,0.00,VWS V13.01,2013-12-10 14:33:00,
2013-12-10 09:34:00,34.0,31.1,29.23,SSE,158,0.0,0.0,89,0.00,,---,0.00,VWS V13.01,2013-12-10 14:34:00,
2013-12-10 09:38:00,34.0,31.1,29.23,SSE,158,0.0,0.0,89,0.00,,---,0.00,VWS V13.01,2013-12-10 14:38:00,
2013-12-10 09:39:00,34.0,31.1,29.23,SSE,158,0.0,0.0,89,0.00,,---,0.00,VWS V13.01,2013-12-10 14:39:00,
2013-12-10 09:40:00,34.0,31.1,29.23,SSE,158,0.0,0.0,89,0.00,,---,0.00,VWS V13.01,2013-12-10 14:40:00,
2013-12-10 09:41:00,34.0,31.1,29.23,SSE,158,0.0,0.0,89,0.00,,---,0.00,VWS V13.01,2013-12-10 14:41:00,
2013-12-10 09:42:00,34.0,31.1,29.23,SSE,158,0.0,0.0,89,0.00,,---,0.00,VWS V13.01,2013-12-10 14:42:00,
2013-12-10 09:43:00,34.0,31.1,29.23,SSE,158,0.0,0.0,89,0.00,,---,0.00,VWS V13.01,2013-12-10 14:43:00,
2013-12-10 09:44:00,34.0,31.1,29.23,SSE,158,0.0,0.0,89,0.00,,---,0.00,VWS V13.01,2013-12-10 14:44:00,
2013-12-10 09:45:00,34.0,31.1,29.23,SSE,158,0.0,0.0,89,0.00,,---,0.00,VWS V13.01,2013-12-10 14:45:00,
2013-12-10 09:47:00,34.0,31.1,29.23,SSE,158,0.0,0.0,89,0.00,,---,0.00,VWS V13.01,2013-12-10 14:47:00,
2013-12-10 09:48:00,34.0,31.1,29.23,SSE,158,0.0,0.0,89,0.00,,---,0.00,VWS V13.01,2013-12-10 14:48:00,
2013-12-10 09:50:00,34.0,31.1,29.23,SSE,158,0.0,0.0,89,0.00,,---,0.00,VWS V13.01,2013-12-10 14:50:00,
2013-12-10 09:51:00,34.0,31.1,29.23,SSE,158,0.0,0.0,89,0.00,,---,0.00,VWS V13.01,2013-12-10 14:51:00,
2013-12-10 09:53:00,34.0,31.1,29.23,SSE,158,0.0,0.0,89,0.00,,---,0.00,VWS V13.01,2013-12-10 14:53:00,
2013-12-10 09:55:00,34.0,31.1,29.23,SSE,158,0.0,0.0,89,0.00,,---,0.00,VWS V13.01,2013-12-10 14:55:00,
2013-12-10 09:56:00,34.0,31.1,29.23,SSE,158,0.0,0.0,89,0.00,,---,0.00,VWS V13.01,2013-12-10 14:56:00,
2013-12-10 09:58:00,34.0,31.1,29.23,SSE,158,0.0,0.0,89,0.00,,---,0.00,VWS V13.01,2013-12-10 14:58:00,
2013-12-10 10:00:00,34.0,31.1,29.23,SSE,158,0.0,0.0,89,0.00,,---,0.00,VWS V13.01,2013-12-10 15:00:00,
2013-12-10 10:01:00,34.0,31.1,29.23,SSE,158,0.0,0.0,89,0.00,,---,0.00,VWS V13.01,2013-12-10 15:01:00,
2013-12-10 10:02:00,34.0,31.1,29.23,SSE,158,0.0,0.0,89,0.00,,---,0.00,VWS V13.01,2013-12-10 15:02:00,
2013-12-10 10:04:00,34.0,31.1,29.23,SSE,158,0.0,0.0,89,0.00,,---,0.00,VWS V13.01,2013-12-10 15:04:00,
2013-12-10 10:06:00,34.0,31.1,29.23,SSE,158,0.0,0.0,89,0.00,,---,0.00,VWS V13.01,2013-12-10 15:06:00,
2013-12-10 10:08:00,34.0,31.1,29.23,SSE,158,0.0,0.0,89,0.00,,---,0.00,VWS V13.01,2013-12-10 15:08:00,
2013-12-10 10:09:00,34.0,31.1,29.23,SSE,158,0.0,0.0,89,0.00,,---,0.00,VWS V13.01,2013-12-10 15:09:00,
2013-12-10 10:10:00,34.0,31.1,29.23,SSE,158,0.0,0.0,89,0.00,,---,0.00,VWS V13.01,2013-12-10 15:10:00,
2013-12-10 10:11:00,34.0,31.1,29.23,SSE,158,0.0,0.0,89,0.00,,---,0.00,VWS V13.01,2013-12-10 15:11:00,
2013-12-10 10:14:00,34.0,31.1,29.23,SSE,158,0.0,0.0,89,0.00,,---,0.00,VWS V13.01,2013-12-10 15:14:00,
2013-12-10 10:16:00,34.0,31.1,29.23,SSE,158,0.0,0.0,89,0.00,,---,0.00,VWS V13.01,2013-12-10 15:16:00,
2013-12-10 10:17:00,34.0,31.1,29.23,SSE,158,0.0,0.0,89,0.00,,---,0.00,VWS V13.01,2013-12-10 15:17:00,
2013-12-10 10:18:00,34.0,31.1,29.23,SSE,158,0.0,0.0,89,0.00,,---,0.00,VWS V13.01,2013-12-10 15:18:00,
2013-12-10 10:19:00,34.0,31.1,29.23,SSE,158,0.0,0.0,89,0.00,,---,0.00,VWS V13.01,2013-12-10 15:19:00,
2013-12-10 10:22:00,34.0,31.1,29.23,SSE,158,0.0,0.0,89,0.00,,---,0.00,VWS V13.01,2013-12-10 15:22:00,
2013-12-10 10:23:00,34.0,31.1,29.23,SSE,158,0.0,0.0,89,0.00,,---,0.00,VWS V13.01,2013-12-10 15:23:00,
2013-12-10 10:24:00,34.0,31.1,29.23,SSE,158,0.0,0.0,89,0.00,,---,0.00,VWS V13.01,2013-12-10 15:24:00,
2013-12-10 10:29:00,34.9,32.0,29.20,SSE,158,0.0,0.0,89,0.00,,---,0.00,VWS V13.01,2013-12-10 15:29:00,
2013-12-10 10:30:00,34.9,32.0,29.20,SSE,158,0.0,0.0,89,0.00,,---,0.00,VWS V13.01,2013-12-10 15:30:00,
2013-12-10 10:31:00,34.9,32.0,29.20,SSE,158,1.1,1.1,89,0.00,,---,0.00,VWS V13.01,2013-12-10 15:31:00,
2013-12-10 10:32:00,34.9,32.0,29.20,SSE,158,0.0,1.1,89,0.00,,---,0.00,VWS V13.01,2013-12-10 15:32:00,
2013-12-10 10:36:00,34.9,32.0,29.20,SSE,158,0.0,0.0,89,0.00,,---,0.00,VWS V13.01,2013-12-10 15:36:00,
2013-12-10 10:39:00,34.9,32.0,29.20,SSE,158,0.0,0.0,89,0.00,,---,0.00,VWS V13.01,2013-12-10 15:39:00,
2013-12-10 10:41:00,34.9,32.0,29.20,SSE,158,0.9,0.9,89,0.00,,---,0.00,VWS V13.01,2013-12-10 15:41:00,
2013-12-10 10:42:00,34.9,32.0,29.20,SSE,158,0.0,0.0,89,0.00,,---,0.00,VWS V13.01,2013-12-10 15:42:00,
2013-12-10 10:43:00,34.9,32.0,29.20,SSE,158,0.0,0.0,89,0.00,,---,0.00,VWS V13.01,2013-12-10 15:43:00,
2013-12-10 10:44:00,34.9,32.0,29.20,SSE,158,0.0,0.0,89,0.00,,---,0.00,VWS V13.01,2013-12-10 15:44:00,
2013-12-10 10:45:00,34.9,32.0,29.20,SSE,158,0.0,0.0,89,0.00,,---,0.00,VWS V13.01,2013-12-10 15:45:00,
2013-12-10 10:46:00,34.9,32.0,29.20,SSE,158,0.0,0.0,89,0.00,,---,0.00,VWS V13.01,2013-12-10 15:46:00,
2013-12-10 10:48:00,34.9,32.0,29.20,SSE,158,0.0,0.0,89,0.00,,---,0.00,VWS V13.01,2013-12-10 15:48:00,
2013-12-10 10:49:00,34.9,32.0,29.20,SSE,158,0.0,0.0,89,0.00,,---,0.00,VWS V13.01,2013-12-10 15:49:00,
2013-12-10 10:50:00,34.9,32.0,29.20,SSE,158,0.0,0.0,89,0.00,,---,0.00,VWS V13.01,2013-12-10 15:50:00,
2013-12-10 10:53:00,34.9,32.0,29.20,SSE,158,0.0,0.0,89,0.00,,---,0.00,VWS V13.01,2013-12-10 15:53:00,
2013-12-10 10:54:00,35.1,31.6,29.20,SSE,158,0.0,0.0,87,0.00,,---,0.00,VWS V13.01,2013-12-10 15:54:00,
2013-12-10 10:55:00,35.1,31.6,29.20,SSE,158,0.0,0.0,87,0.00,,---,0.00,VWS V13.01,2013-12-10 15:55:00,
2013-12-10 10:56:00,35.1,31.6,29.20,SSE,158,0.0,0.0,87,0.00,,---,0.00,VWS V13.01,2013-12-10 15:56:00,
2013-12-10 11:00:00,35.1,31.6,29.20,SSE,158,0.0,0.0,87,0.00,,---,0.00,VWS V13.01,2013-12-10 16:00:00,
2013-12-10 11:01:00,35.1,31.6,29.20,SSE,158,0.0,0.0,87,0.00,,---,0.00,VWS V13.01,2013-12-10 16:01:00,
2013-12-10 11:02:00,35.1,31.6,29.20,SSE,158,0.0,0.0,87,0.00,,---,0.00,VWS V13.01,2013-12-10 16:02:00,
2013-12-10 11:03:00,35.1,31.6,29.20,SSE,158,0.0,0.0,87,0.00,,---,0.00,VWS V13.01,2013-12-10 16:03:00,
2013-12-10 11:04:00,35.1,31.6,29.20,SSE,158,0.0,0.0,87,0.00,,---,0.00,VWS V13.01,2013-12-10 16:04:00,
2013-12-10 11:05:00,35.1,31.6,29.20,SSE,158,0.0,0.0,87,0.00,,---,0.00,VWS V13.01,2013-12-10 16:05:00,
2013-12-10 11:07:00,35.1,31.6,29.20,SSE,158,0.0,0.0,87,0.00,,---,0.00,VWS V13.01,2013-12-10 16:07:00,
2013-12-10 11:09:00,35.1,31.6,29.17,SSE,158,0.0,0.0,87,0.00,,---,0.00,VWS V13.01,2013-12-10 16:09:00,
2013-12-10 11:10:00,35.1,31.6,29.17,SSE,158,0.0,0.0,87,0.00,,---,0.00,VWS V13.01,2013-12-10 16:10:00,
2013-12-10 11:12:00,35.1,31.6,29.17,SSE,158,0.0,0.0,87,0.00,,---,0.00,VWS V13.01,2013-12-10 16:12:00,
2013-12-10 11:14:00,35.1,31.6,29.17,SSE,158,0.0,0.0,87,0.00,,---,0.00,VWS V13.01,2013-12-10 16:14:00,
2013-12-10 11:15:00,35.1,31.6,29.17,SSE,158,0.0,0.0,87,0.00,,---,0.00,VWS V13.01,2013-12-10 16:15:00,
2013-12-10 11:17:00,35.1,31.6,29.17,SSE,158,0.9,0.9,87,0.00,,---,0.00,VWS V13.01,2013-12-10 16:17:00,
2013-12-10 11:18:00,35.1,31.6,29.17,SSE,158,0.0,0.9,87,0.00,,---,0.00,VWS V13.01,2013-12-10 16:18:00,
2013-12-10 11:20:00,34.7,31.2,29.17,SSE,158,0.0,0.0,87,0.00,,---,0.00,VWS V13.01,2013-12-10 16:20:00,
2013-12-10 11:22:00,34.7,31.2,29.17,SSE,158,0.0,0.0,87,0.00,,---,0.00,VWS V13.01,2013-12-10 16:22:00,
2013-12-10 11:23:00,34.7,31.2,29.17,SSE,158,0.0,0.0,87,0.00,,---,0.00,VWS V13.01,2013-12-10 16:23:00,
2013-12-10 11:25:00,34.5,31.1,29.14,SSE,158,0.0,0.0,87,0.00,,---,0.00,VWS V13.01,2013-12-10 16:25:00,
2013-12-10 11:26:00,34.5,30.8,29.14,SSE,158,0.0,0.0,86,0.00,,---,0.00,VWS V13.01,2013-12-10 16:26:00,
2013-12-10 11:27:00,34.5,30.8,29.14,SSE,158,0.0,0.0,86,0.00,,---,0.00,VWS V13.01,2013-12-10 16:27:00,
2013-12-10 11:28:00,34.5,31.1,29.14,SSE,158,0.0,0.0,87,0.00,,---,0.00,VWS V13.01,2013-12-10 16:28:00,
2013-12-10 11:30:00,34.5,31.1,29.14,SSE,158,0.0,0.0,87,0.00,,---,0.00,VWS V13.01,2013-12-10 16:30:00,
2013-12-10 11:31:00,34.5,31.1,29.14,SSE,158,0.0,0.0,87,0.00,,---,0.00,VWS V13.01,2013-12-10 16:31:00,
2013-12-10 11:32:00,34.5,31.1,29.14,SSE,158,0.0,0.0,87,0.00,,---,0.00,VWS V13.01,2013-12-10 16:32:00,
2013-12-10 11:34:00,34.5,31.1,29.14,SSE,158,0.0,0.0,87,0.00,,---,0.00,VWS V13.01,2013-12-10 16:34:00,
2013-12-10 11:35:00,34.5,31.1,29.14,SSE,158,0.0,0.0,87,0.00,,---,0.00,VWS V13.01,2013-12-10 16:35:00,
2013-12-10 11:36:00,34.5,31.1,29.14,SSE,158,0.0,0.0,87,0.00,,---,0.00,VWS V13.01,2013-12-10 16:36:00,
2013-12-10 11:37:00,34.3,30.9,29.14,SSE,158,1.1,1.1,87,0.00,,---,0.00,VWS V13.01,2013-12-10 16:37:00,
2013-12-10 11:38:00,34.3,30.9,29.14,SSE,158,1.1,1.1,87,0.00,,---,0.00,VWS V13.01,2013-12-10 16:38:00,
2013-12-10 11:41:00,34.2,30.4,29.17,SSE,158,0.0,0.0,86,0.00,,---,0.00,VWS V13.01,2013-12-10 16:41:00,
2013-12-10 11:42:00,34.2,30.4,29.17,SSE,158,0.0,0.0,86,0.00,,---,0.00,VWS V13.01,2013-12-10 16:42:00,
2013-12-10 11:43:00,34.2,30.4,29.17,SSE,158,0.0,0.0,86,0.00,,---,0.00,VWS V13.01,2013-12-10 16:43:00,
2013-12-10 11:45:00,34.2,30.4,29.17,SSE,158,0.0,0.0,86,0.00,,---,0.00,VWS V13.01,2013-12-10 16:45:00,
2013-12-10 11:47:00,34.2,30.7,29.17,SSE,158,0.0,0.0,87,0.00,,---,0.00,VWS V13.01,2013-12-10 16:47:00,
2013-12-10 11:48:00,34.2,30.7,29.17,SSE,158,0.0,0.0,87,0.00,,---,0.00,VWS V13.01,2013-12-10 16:48:00,
2013-12-10 11:49:00,34.2,30.7,29.17,SSE,158,0.0,0.0,87,0.00,,---,0.00,VWS V13.01,2013-12-10 16:49:00,
2013-12-10 11:53:00,34.2,30.7,29.17,SSE,158,0.0,0.0,87,0.00,,---,0.00,VWS V13.01,2013-12-10 16:53:00,
2013-12-10 11:54:00,34.2,30.7,29.17,SSE,158,0.0,0.0,87,0.00,,---,0.00,VWS V13.01,2013-12-10 16:54:00,
2013-12-10 11:55:00,34.2,30.7,29.14,SSE,158,0.0,0.0,87,0.00,,---,0.00,VWS V13.01,2013-12-10 16:55:00,
2013-12-10 11:57:00,34.2,30.7,29.14,SSE,158,0.0,0.0,87,0.00,,---,0.00,VWS V13.01,2013-12-10 16:57:00,
2013-12-10 11:59:00,34.2,30.7,29.14,SSE,158,0.0,0.0,87,0.00,,---,0.00,VWS V13.01,2013-12-10 16:59:00,
2013-12-10 12:00:00,34.2,30.7,29.14,SSE,158,0.0,0.0,87,0.00,,---,0.00,VWS V13.01,2013-12-10 17:00:00,
2013-12-10 12:03:00,34.2,30.7,29.14,SSE,158,0.0,0.0,87,0.00,,---,0.00,VWS V13.01,2013-12-10 17:03:00,
2013-12-10 12:04:00,34.2,30.7,29.14,SSE,158,0.0,0.0,87,0.00,,---,0.00,VWS V13.01,2013-12-10 17:04:00,
2013-12-10 12:05:00,34.2,30.7,29.14,SSE,158,0.0,0.0,87,0.00,,---,0.00,VWS V13.01,2013-12-10 17:05:00,
2013-12-10 12:08:00,34.2,30.7,29.14,SSE,158,0.0,0.0,87,0.00,,---,0.00,VWS V13.01,2013-12-10 17:08:00,
2013-12-10 12:09:00,34.2,30.7,29.14,SSE,158,0.0,0.0,87,0.00,,---,0.00,VWS V13.01,2013-12-10 17:09:00,
2013-12-10 12:10:00,34.2,30.7,29.17,SSE,158,0.0,0.0,87,0.00,,---,0.00,VWS V13.01,2013-12-10 17:10:00,
2013-12-10 12:11:00,34.2,30.7,29.17,SSE,158,0.0,0.0,87,0.00,,---,0.00,VWS V13.01,2013-12-10 17:11:00,
2013-12-10 12:12:00,33.6,30.2,29.17,SSE,158,0.9,0.9,87,0.00,,---,0.00,VWS V13.01,2013-12-10 17:12:00,
2013-12-10 12:14:00,33.6,30.2,29.17,SSE,158,0.0,0.9,87,0.00,,---,0.00,VWS V13.01,2013-12-10 17:14:00,
2013-12-10 12:15:00,33.6,30.2,29.17,SSE,158,0.0,0.0,87,0.00,,---,0.00,VWS V13.01,2013-12-10 17:15:00,
2013-12-10 12:16:00,33.6,30.2,29.17,SSE,158,0.0,0.0,87,0.00,,---,0.00,VWS V13.01,2013-12-10 17:16:00,
2013-12-10 12:17:00,33.6,30.2,29.17,SSE,158,0.0,0.0,87,0.00,,---,0.00,VWS V13.01,2013-12-10 17:17:00,
2013-12-10 12:20:00,33.8,30.1,29.17,SSE,158,0.9,0.9,86,0.00,,---,0.00,VWS V13.01,2013-12-10 17:20:00,
2013-12-10 12:21:00,33.8,30.1,29.17,SSE,158,0.9,0.9,86,0.00,,---,0.00,VWS V13.01,2013-12-10 17:21:00,
2013-12-10 12:22:00,33.8,30.1,29.17,SSE,158,0.0,0.9,86,0.00,,---,0.00,VWS V13.01,2013-12-10 17:22:00,
2013-12-10 12:24:00,33.8,30.1,29.17,SSE,158,0.0,0.0,86,0.00,,---,0.00,VWS V13.01,2013-12-10 17:24:00,
2013-12-10 12:26:00,33.8,30.1,29.17,SSE,158,0.0,0.0,86,0.00,,---,0.00,VWS V13.01,2013-12-10 17:26:00,
2013-12-10 12:27:00,33.8,30.1,29.17,SSE,158,0.0,0.0,86,0.00,,---,0.00,VWS V13.01,2013-12-10 17:27:00,
2013-12-10 12:28:00,33.8,30.1,29.17,SSE,158,0.0,0.0,86,0.00,,---,0.00,VWS V13.01,2013-12-10 17:28:00,
2013-12-10 12:31:00,33.8,30.1,29.17,SSE,158,0.0,0.0,86,0.00,,---,0.00,VWS V13.01,2013-12-10 17:31:00,
2013-12-10 12:32:00,33.8,30.1,29.17,SSE,158,0.0,0.0,86,0.00,,---,0.00,VWS V13.01,2013-12-10 17:32:00,
2013-12-10 12:33:00,33.8,30.1,29.17,SSE,158,0.0,0.0,86,0.00,,---,0.00,VWS V13.01,2013-12-10 17:33:00,
2013-12-10 12:35:00,33.8,30.1,29.17,SSE,158,0.0,0.0,86,0.00,,---,0.00,VWS V13.01,2013-12-10 17:35:00,
2013-12-10 12:37:00,33.8,30.1,29.17,SSE,158,0.0,0.0,86,0.00,,---,0.00,VWS V13.01,2013-12-10 17:37:00,
2013-12-10 12:39:00,33.8,30.1,29.12,SSE,158,0.0,0.0,86,0.00,,---,0.00,VWS V13.01,2013-12-10 17:39:00,
2013-12-10 12:40:00,33.8,30.1,29.12,SSE,158,0.0,0.0,86,0.00,,---,0.00,VWS V13.01,2013-12-10 17:40:00,
2013-12-10 12:42:00,33.8,30.1,29.12,SSE,158,0.0,0.0,86,0.00,,---,0.00,VWS V13.01,2013-12-10 17:42:00,
2013-12-10 12:43:00,33.8,30.1,29.12,SSE,158,0.0,0.0,86,0.00,,---,0.00,VWS V13.01,2013-12-10 17:43:00,
2013-12-10 12:44:00,33.8,30.1,29.12,SSE,158,0.0,0.0,86,0.00,,---,0.00,VWS V13.01,2013-12-10 17:44:00,
2013-12-10 12:46:00,33.8,30.1,29.12,SSE,158,0.0,0.0,86,0.00,,---,0.00,VWS V13.01,2013-12-10 17:46:00,
2013-12-10 12:48:00,33.8,30.1,29.12,SSE,158,0.0,0.0,86,0.00,,---,0.00,VWS V13.01,2013-12-10 17:48:00,
2013-12-10 12:49:00,33.6,29.9,29.12,SSE,158,0.0,0.0,86,0.00,,---,0.00,VWS V13.01,2013-12-10 17:49:00,
2013-12-10 12:50:00,33.6,29.9,29.12,SSE,158,0.0,0.0,86,0.00,,---,0.00,VWS V13.01,2013-12-10 17:50:00,
2013-12-10 12:51:00,33.6,29.9,29.12,SSE,158,0.0,0.0,86,0.00,,---,0.00,VWS V13.01,2013-12-10 17:51:00,
2013-12-10 12:53:00,33.6,29.9,29.12,SSE,158,0.0,0.0,86,0.00,,---,0.00,VWS V13.01,2013-12-10 17:53:00,
2013-12-10 12:55:00,33.6,29.9,29.12,SSE,158,0.0,0.0,86,0.00,,---,0.00,VWS V13.01,2013-12-10 17:55:00,
2013-12-10 12:57:00,33.6,29.9,29.12,SSE,158,0.0,0.0,86,0.00,,---,0.00,VWS V13.01,2013-12-10 17:57:00,
2013-12-10 13:00:00,33.6,29.9,29.12,SSE,158,0.0,0.0,86,0.00,,---,0.00,VWS V13.01,2013-12-10 18:00:00,
2013-12-10 13:01:00,33.6,29.9,29.12,SSE,158,0.0,0.0,86,0.00,,---,0.00,VWS V13.01,2013-12-10 18:01:00,
2013-12-10 13:02:00,33.6,29.9,29.12,SSE,158,0.0,0.0,86,0.00,,---,0.00,VWS V13.01,2013-12-10 18:02:00,
2013-12-10 13:03:00,33.6,29.9,29.12,SSE,158,0.0,0.0,86,0.00,,---,0.00,VWS V13.01,2013-12-10 18:03:00,
2013-12-10 13:05:00,33.6,29.9,29.12,SSE,158,0.0,0.0,86,0.00,,---,0.00,VWS V13.01,2013-12-10 18:05:00,
2013-12-10 13:08:00,33.6,29.9,29.12,SSE,158,0.0,0.0,86,0.00,,---,0.00,VWS V13.01,2013-12-10 18:08:00,
2013-12-10 13:09:00,33.6,29.9,29.14,SSE,158,0.0,0.0,86,0.00,,---,0.00,VWS V13.01,2013-12-10 18:09:00,
2013-12-10 13:10:00,33.6,29.9,29.14,SSE,158,0.0,0.0,86,0.00,,---,0.00,VWS V13.01,2013-12-10 18:10:00,
2013-12-10 13:11:00,33.6,29.9,29.14,SSE,158,0.0,0.0,86,0.00,,---,0.00,VWS V13.01,2013-12-10 18:11:00,
2013-12-10 13:13:00,33.6,29.9,29.14,SSE,158,0.0,0.9,86,0.00,,---,0.00,VWS V13.01,2013-12-10 18:13:00,
2013-12-10 13:14:00,33.6,29.9,29.14,SSE,158,0.0,0.0,86,0.00,,---,0.00,VWS V13.01,2013-12-10 18:14:00,
2013-12-10 13:15:00,33.6,29.9,29.14,SSE,158,0.0,0.0,86,0.00,,---,0.00,VWS V13.01,2013-12-10 18:15:00,
2013-12-10 13:17:00,33.6,29.9,29.14,SSE,158,0.0,0.0,86,0.00,,---,0.00,VWS V13.01,2013-12-10 18:17:00,
2013-12-10 13:19:00,33.4,30.0,29.14,SSE,158,0.0,0.0,87,0.00,,---,0.00,VWS V13.01,2013-12-10 18:19:00,
2013-12-10 13:20:00,33.4,30.0,29.14,SSE,158,0.0,0.0,87,0.00,,---,0.00,VWS V13.01,2013-12-10 18:20:00,
2013-12-10 13:22:00,33.4,30.0,29.14,SSE,158,0.0,0.0,87,0.00,,---,0.00,VWS V13.01,2013-12-10 18:22:00,
2013-12-10 13:24:00,33.4,30.0,29.14,SSE,158,0.0,0.0,87,0.00,,---,0.00,VWS V13.01,2013-12-10 18:24:00,
2013-12-10 13:25:00,33.4,30.0,29.14,SSE,158,0.0,0.0,87,0.00,,---,0.00,VWS V13.01,2013-12-10 18:25:00,
2013-12-10 13:26:00,33.4,30.0,29.14,SSE,158,0.0,0.0,87,0.00,,---,0.00,VWS V13.01,2013-12-10 18:26:00,
2013-12-10 13:27:00,33.4,30.0,29.14,SSE,158,0.0,0.0,87,0.00,,---,0.00,VWS V13.01,2013-12-10 18:27:00,
2013-12-10 13:29:00,33.4,30.0,29.14,SSE,158,0.0,0.0,87,0.00,,---,0.00,VWS V13.01,2013-12-10 18:29:00,
2013-12-10 13:32:00,33.4,30.0,29.14,SSE,158,0.0,0.0,87,0.00,,---,0.00,VWS V13.01,2013-12-10 18:32:00,
2013-12-10 13:34:00,33.4,30.0,29.14,SSE,158,0.0,0.0,87,0.00,,---,0.00,VWS V13.01,2013-12-10 18:34:00,
2013-12-10 13:35:00,33.4,30.0,29.14,SSE,158,0.0,0.0,87,0.00,,---,0.00,VWS V13.01,2013-12-10 18:35:00,
2013-12-10 13:36:00,33.4,30.0,29.14,SSE,158,0.0,0.0,87,0.00,,---,0.00,VWS V13.01,2013-12-10 18:36:00,
2013-12-10 13:39:00,33.4,30.0,29.14,SSE,158,0.0,0.0,87,0.00,,---,0.00,VWS V13.01,2013-12-10 18:39:00,
2013-12-10 13:41:00,33.4,30.0,29.14,SSE,158,0.0,0.0,87,0.00,,---,0.00,VWS V13.01,2013-12-10 18:41:00,
2013-12-10 13:42:00,33.3,29.5,29.14,SSE,158,0.0,0.0,86,0.00,,---,0.00,VWS V13.01,2013-12-10 18:42:00,
2013-12-10 13:43:00,33.3,29.5,29.14,SSE,158,0.0,0.0,86,0.00,,---,0.00,VWS V13.01,2013-12-10 18:43:00,
2013-12-10 13:44:00,33.3,29.5,29.14,SSE,158,0.0,0.0,86,0.00,,---,0.00,VWS V13.01,2013-12-10 18:44:00,
2013-12-10 13:45:00,33.3,29.5,29.14,SSE,158,0.0,0.0,86,0.00,,---,0.00,VWS V13.01,2013-12-10 18:45:00,
2013-12-10 13:47:00,33.3,29.5,29.14,SSE,158,0.0,0.0,86,0.00,,---,0.00,VWS V13.01,2013-12-10 18:47:00,
2013-12-10 13:49:00,33.3,29.5,29.14,SSE,158,0.0,0.0,86,0.00,,---,0.00,VWS V13.01,2013-12-10 18:49:00,
2013-12-10 13:51:00,33.3,29.5,29.14,SSE,158,0.0,0.9,86,0.00,,---,0.00,VWS V13.01,2013-12-10 18:51:00,
2013-12-10 13:53:00,33.3,29.5,29.14,SSE,158,0.0,0.0,86,0.00,,---,0.00,VWS V13.01,2013-12-10 18:53:00,
2013-12-10 13:54:00,33.3,29.5,29.14,SSE,158,0.0,0.0,86,0.00,,---,0.00,VWS V13.01,2013-12-10 18:54:00,
2013-12-10 13:56:00,33.3,29.5,29.14,SSE,158,0.0,0.0,86,0.00,,---,0.00,VWS V13.01,2013-12-10 18:56:00,
2013-12-10 13:57:00,33.3,29.5,29.14,SSE,158,0.0,0.0,86,0.00,,---,0.00,VWS V13.01,2013-12-10 18:57:00,
2013-12-10 14:00:00,33.3,29.5,29.14,SSE,158,0.0,0.0,86,0.00,,---,0.00,VWS V13.01,2013-12-10 19:00:00,
2013-12-10 14:01:00,33.3,29.5,29.14,SSE,158,0.0,0.0,86,0.00,,---,0.00,VWS V13.01,2013-12-10 19:01:00,
2013-12-10 14:02:00,33.3,29.5,29.14,SSE,158,0.0,0.0,86,0.00,,---,0.00,VWS V13.01,2013-12-10 19:02:00,
2013-12-10 14:05:00,33.3,29.5,29.14,SSE,158,0.0,0.0,86,0.00,,---,0.00,VWS V13.01,2013-12-10 19:05:00,
2013-12-10 14:06:00,33.3,29.5,29.14,SSE,158,0.0,0.0,86,0.00,,---,0.00,VWS V13.01,2013-12-10 19:06:00,
2013-12-10 14:07:00,33.3,29.5,29.14,SSE,158,0.0,0.0,86,0.00,,---,0.00,VWS V13.01,2013-12-10 19:07:00,
2013-12-10 14:10:00,33.3,29.5,29.14,SSE,158,0.0,0.0,86,0.00,,---,0.00,VWS V13.01,2013-12-10 19:10:00,
2013-12-10 14:11:00,33.3,29.5,29.14,SSE,158,0.0,0.0,86,0.00,,---,0.00,VWS V13.01,2013-12-10 19:11:00,
2013-12-10 14:12:00,33.1,29.4,29.14,SSE,158,0.0,0.0,86,0.00,,---,0.00,VWS V13.01,2013-12-10 19:12:00,
2013-12-10 14:14:00,33.1,29.4,29.14,SSE,158,0.0,0.0,86,0.00,,---,0.00,VWS V13.01,2013-12-10 19:14:00,
2013-12-10 14:16:00,33.1,29.4,29.14,SSE,158,0.0,0.0,86,0.00,,---,0.00,VWS V13.01,2013-12-10 19:16:00,
2013-12-10 14:17:00,33.1,29.4,29.14,SSE,158,0.0,0.0,86,0.00,,---,0.00,VWS V13.01,2013-12-10 19:17:00,
2013-12-10 14:18:00,33.1,29.4,29.14,SSE,158,0.0,0.0,86,0.00,,---,0.00,VWS V13.01,2013-12-10 19:18:00,
2013-12-10 14:21:00,33.1,29.4,29.14,SSE,158,0.0,0.9,86,0.00,,---,0.00,VWS V13.01,2013-12-10 19:21:00,
2013-12-10 14:22:00,33.1,29.4,29.14,SSE,158,0.0,0.9,86,0.00,,---,0.00,VWS V13.01,2013-12-10 19:22:00,
2013-12-10 14:23:00,33.1,29.4,29.14,SSE,158,0.0,0.0,86,0.00,,---,0.00,VWS V13.01,2013-12-10 19:23:00,
2013-12-10 14:24:00,33.1,29.4,29.14,SSE,158,0.0,0.0,86,0.00,,---,0.00,VWS V13.01,2013-12-10 19:24:00,
2013-12-10 14:25:00,32.7,29.0,29.14,SSE,158,0.0,0.0,86,0.00,,---,0.00,VWS V13.01,2013-12-10 19:25:00,
2013-12-10 14:26:00,32.7,29.0,29.14,SSE,158,0.0,0.0,86,0.00,,---,0.00,VWS V13.01,2013-12-10 19:26:00,
2013-12-10 14:27:00,32.7,29.0,29.14,SSE,158,2.5,2.5,86,0.00,,---,0.00,VWS V13.01,2013-12-10 19:27:00,
2013-12-10 14:28:00,32.7,29.0,29.14,SSE,158,0.0,2.5,86,0.00,,---,0.00,VWS V13.01,2013-12-10 19:28:00,
2013-12-10 14:30:00,32.5,28.8,29.14,SSE,158,0.0,0.0,86,0.00,,---,0.00,VWS V13.01,2013-12-10 19:30:00,
2013-12-10 14:31:00,32.5,28.8,29.14,SSE,158,0.0,0.0,86,0.00,,---,0.00,VWS V13.01,2013-12-10 19:31:00,
2013-12-10 14:32:00,32.5,28.8,29.14,SSE,158,0.0,0.0,86,0.00,,---,0.00,VWS V13.01,2013-12-10 19:32:00,
2013-12-10 14:33:00,32.5,28.8,29.14,SSE,158,1.3,1.3,86,0.00,,---,0.00,VWS V13.01,2013-12-10 19:33:00,
2013-12-10 14:34:00,32.5,28.8,29.14,SSE,158,0.9,1.3,86,0.00,,---,0.00,VWS V13.01,2013-12-10 19:34:00,
2013-12-10 14:36:00,32.5,28.8,29.14,SSE,158,0.0,0.9,86,0.00,,---,0.00,VWS V13.01,2013-12-10 19:36:00,
2013-12-10 14:37:00,32.5,28.8,29.14,SSE,158,0.0,0.0,86,0.00,,---,0.00,VWS V13.01,2013-12-10 19:37:00,
2013-12-10 14:38:00,32.5,28.8,29.14,SSE,158,0.0,0.0,86,0.00,,---,0.00,VWS V13.01,2013-12-10 19:38:00,
2013-12-10 14:41:00,32.5,28.8,29.14,SSE,158,0.0,0.0,86,0.00,,---,0.00,VWS V13.01,2013-12-10 19:41:00,
2013-12-10 14:42:00,32.4,28.6,29.14,SSE,158,0.0,0.0,86,0.00,,---,0.00,VWS V13.01,2013-12-10 19:42:00,
2013-12-10 14:43:00,32.4,28.6,29.14,SSE,158,0.0,0.0,86,0.00,,---,0.00,VWS V13.01,2013-12-10 19:43:00,
2013-12-10 14:46:00,32.4,28.6,29.14,SSE,158,0.0,0.0,86,0.00,,---,0.00,VWS V13.01,2013-12-10 19:46:00,
2013-12-10 14:47:00,32.4,28.6,29.14,SSE,158,0.0,0.0,86,0.00,,---,0.00,VWS V13.01,2013-12-10 19:47:00,
2013-12-10 14:48:00,32.4,28.6,29.14,SSE,158,0.0,0.0,86,0.00,,---,0.00,VWS V13.01,2013-12-10 19:48:00,
2013-12-10 14:51:00,32.4,28.6,29.14,SSE,158,0.0,0.0,86,0.00,,---,0.00,VWS V13.01,2013-12-10 19:51:00,
2013-12-10 14:53:00,32.4,28.6,29.14,SSE,158,0.0,0.0,86,0.00,,---,0.00,VWS V13.01,2013-12-10 19:53:00,
2013-12-10 14:54:00,32.4,28.6,29.14,SSE,158,0.0,0.0,86,0.00,,---,0.00,VWS V13.01,2013-12-10 19:54:00,
2013-12-10 14:55:00,32.4,28.6,29.14,SSE,158,0.0,0.0,86,0.00,,---,0.00,VWS V13.01,2013-12-10 19:55:00,
2013-12-10 14:56:00,32.4,28.6,29.14,SSE,158,0.0,0.0,86,0.00,,---,0.00,VWS V13.01,2013-12-10 19:56:00,
2013-12-10 14:59:00,32.4,28.6,29.14,SSE,158,0.0,0.0,86,0.00,,---,0.00,VWS V13.01,2013-12-10 19:59:00,
2013-12-10 15:00:00,32.4,28.6,29.14,SSE,158,0.0,0.0,86,0.00,,---,0.00,VWS V13.01,2013-12-10 20:00:00,
2013-12-10 15:03:00,32.4,28.6,29.14,SSE,158,0.0,0.0,86,0.00,,---,0.00,VWS V13.01,2013-12-10 20:03:00,
2013-12-10 15:04:00,32.2,28.5,29.14,SSE,158,0.0,0.0,86,0.00,,---,0.00,VWS V13.01,2013-12-10 20:04:00,
2013-12-10 15:05:00,32.2,28.5,29.14,SSE,158,0.0,0.0,86,0.00,,---,0.00,VWS V13.01,2013-12-10 20:05:00,
2013-12-10 15:06:00,32.2,28.5,29.14,SSE,158,0.0,0.0,86,0.00,,---,0.00,VWS V13.01,2013-12-10 20:06:00,
2013-12-10 15:08:00,32.2,28.5,29.14,SSE,158,0.0,0.0,86,0.00,,---,0.00,VWS V13.01,2013-12-10 20:08:00,
2013-12-10 15:09:00,32.2,28.5,29.14,SSE,158,0.0,0.0,86,0.00,,---,0.00,VWS V13.01,2013-12-10 20:09:00,
2013-12-10 15:10:00,32.2,28.5,29.14,SSE,158,0.0,0.0,86,0.00,,---,0.00,VWS V13.01,2013-12-10 20:10:00,
2013-12-10 15:11:00,32.2,28.5,29.14,SSE,158,0.0,0.0,86,0.00,,---,0.00,VWS V13.01,2013-12-10 20:11:00,
2013-12-10 15:14:00,32.2,28.5,29.14,SSE,158,0.0,0.0,86,0.00,,---,0.00,VWS V13.01,2013-12-10 20:14:00,
2013-12-10 15:15:00,32.2,28.5,29.14,SSE,158,0.0,0.0,86,0.00,,---,0.00,VWS V13.01,2013-12-10 20:15:00,
2013-12-10 15:16:00,32.2,28.5,29.14,SSE,158,0.0,0.0,86,0.00,,---,0.00,VWS V13.01,2013-12-10 20:16:00,
2013-12-10 15:17:00,32.2,28.5,29.14,SSE,158,0.0,0.0,86,0.00,,---,0.00,VWS V13.01,2013-12-10 20:17:00,
2013-12-10 15:19:00,32.2,28.5,29.14,SSE,158,0.0,0.0,86,0.00,,---,0.00,VWS V13.01,2013-12-10 20:19:00,
2013-12-10 15:21:00,32.2,28.5,29.14,SSE,158,0.0,0.0,86,0.00,,---,0.00,VWS V13.01,2013-12-10 20:21:00,
2013-12-10 15:22:00,32.2,28.5,29.14,SSE,158,0.0,0.0,86,0.00,,---,0.00,VWS V13.01,2013-12-10 20:22:00,
2013-12-10 15:23:00,32.2,28.5,29.14,SSE,158,0.0,0.0,86,0.00,,---,0.00,VWS V13.01,2013-12-10 20:23:00,
2013-12-10 15:24:00,32.2,28.5,29.14,SSE,158,0.0,0.0,86,0.00,,---,0.00,VWS V13.01,2013-12-10 20:24:00,
2013-12-10 15:27:00,32.2,28.5,29.14,SSE,158,0.0,1.1,86,0.00,,---,0.00,VWS V13.01,2013-12-10 20:27:00,
2013-12-10 15:28:00,32.0,28.0,29.14,SSE,158,0.0,0.0,85,0.00,,---,0.00,VWS V13.01,2013-12-10 20:28:00,
2013-12-10 15:29:00,32.0,28.0,29.14,SSE,158,0.0,0.0,85,0.00,,---,0.00,VWS V13.01,2013-12-10 20:29:00,
2013-12-10 15:30:00,32.0,28.0,29.14,SSE,158,0.0,0.0,85,0.00,,---,0.00,VWS V13.01,2013-12-10 20:30:00,
2013-12-10 15:33:00,32.0,28.0,29.14,SSE,158,0.9,1.1,85,0.00,,---,0.00,VWS V13.01,2013-12-10 20:33:00,
2013-12-10 15:34:00,32.0,28.0,29.14,SSE,158,0.0,0.0,85,0.00,,---,0.00,VWS V13.01,2013-12-10 20:34:00,
2013-12-10 15:35:00,32.0,28.0,29.14,SSE,158,1.1,1.6,85,0.00,,---,0.00,VWS V13.01,2013-12-10 20:35:00,
2013-12-10 15:36:00,32.0,28.0,29.14,SSE,158,0.0,1.1,85,0.00,,---,0.00,VWS V13.01,2013-12-10 20:36:00,
2013-12-10 15:37:00,32.0,28.0,29.14,SSE,158,1.3,1.3,85,0.00,,---,0.00,VWS V13.01,2013-12-10 20:37:00,
2013-12-10 15:41:00,32.0,28.0,29.14,SSE,158,0.0,0.0,85,0.00,,---,0.00,VWS V13.01,2013-12-10 20:41:00,
2013-12-10 15:42:00,32.0,28.0,29.14,SSE,158,0.0,0.0,85,0.00,,---,0.00,VWS V13.01,2013-12-10 20:42:00,
2013-12-10 15:43:00,32.0,28.0,29.14,SSE,158,0.0,0.0,85,0.00,,---,0.00,VWS V13.01,2013-12-10 20:43:00,
2013-12-10 15:46:00,32.0,28.0,29.14,SSE,158,1.1,1.1,85,0.00,,---,0.00,VWS V13.01,2013-12-10 20:46:00,
2013-12-10 15:48:00,32.0,28.0,29.14,SSE,158,0.0,0.9,85,0.00,,---,0.00,VWS V13.01,2013-12-10 20:48:00,
2013-12-10 15:49:00,32.0,28.0,29.14,SSE,158,1.3,1.3,85,0.00,,---,0.00,VWS V13.01,2013-12-10 20:49:00,
2013-12-10 15:53:00,32.0,28.0,29.14,SSE,158,0.0,0.0,85,0.00,,---,0.00,VWS V13.01,2013-12-10 20:53:00,
2013-12-10 15:54:00,31.3,26.7,29.14,SSE,158,0.0,0.0,83,0.00,,---,0.00,VWS V13.01,2013-12-10 20:54:00,
2013-12-10 15:55:00,31.3,26.7,29.14,SSE,158,0.0,0.0,83,0.00,,---,0.00,VWS V13.01,2013-12-10 20:55:00,
2013-12-10 15:56:00,31.3,26.7,29.14,SSE,158,1.3,1.3,83,0.00,,---,0.00,VWS V13.01,2013-12-10 20:56:00,
2013-12-10 15:57:00,31.1,26.5,29.14,SSE,158,1.3,1.3,83,0.00,,---,0.00,VWS V13.01,2013-12-10 20:57:00,
2013-12-10 15:58:00,31.1,26.5,29.14,SSE,158,1.3,1.3,83,0.00,,---,0.00,VWS V13.01,2013-12-10 20:58:00,
2013-12-10 15:59:00,31.1,26.5,29.14,SSE,158,0.0,1.3,83,0.00,,---,0.00,VWS V13.01,2013-12-10 20:59:00,
2013-12-10 16:01:00,31.1,26.5,29.17,SSE,158,0.0,0.0,83,0.00,,---,0.00,VWS V13.01,2013-12-10 21:01:00,
2013-12-10 16:03:00,31.1,26.5,29.17,SSE,158,0.0,0.9,83,0.00,,---,0.00,VWS V13.01,2013-12-10 21:03:00,
2013-12-10 16:04:00,31.1,26.5,29.17,SSE,158,0.0,0.0,83,0.00,,---,0.00,VWS V13.01,2013-12-10 21:04:00,
2013-12-10 16:05:00,31.1,26.5,29.17,SSE,158,0.0,0.0,83,0.00,,---,0.00,VWS V13.01,2013-12-10 21:05:00,
2013-12-10 16:07:00,31.1,26.5,29.17,SSE,158,0.9,0.9,83,0.00,,---,0.00,VWS V13.01,2013-12-10 21:07:00,
2013-12-10 16:10:00,31.1,26.5,29.17,SSE,158,2.5,2.5,83,0.00,,---,0.00,VWS V13.01,2013-12-10 21:10:00,
2013-12-10 16:12:00,31.1,26.5,29.17,SSE,158,0.0,0.0,83,0.00,,---,0.00,VWS V13.01,2013-12-10 21:12:00,
2013-12-10 16:13:00,31.1,26.5,29.17,SSE,158,0.0,0.9,83,0.00,,---,0.00,VWS V13.01,2013-12-10 21:13:00,
2013-12-10 16:14:00,31.1,26.5,29.17,SSE,158,0.0,0.0,83,0.00,,---,0.00,VWS V13.01,2013-12-10 21:14:00,
2013-12-10 16:15:00,31.1,26.5,29.17,SSE,158,0.0,0.0,83,0.00,,---,0.00,VWS V13.01,2013-12-10 21:15:00,
2013-12-10 16:16:00,31.1,26.5,29.17,SSE,158,0.0,0.0,83,0.00,,---,0.00,VWS V13.01,2013-12-10 21:16:00,
2013-12-10 16:19:00,31.1,26.5,29.17,SSE,158,0.0,0.0,83,0.00,,---,0.00,VWS V13.01,2013-12-10 21:19:00,
2013-12-10 16:20:00,31.1,26.5,29.17,SSE,158,0.0,0.0,83,0.00,,---,0.00,VWS V13.01,2013-12-10 21:20:00,
2013-12-10 16:21:00,30.2,25.7,29.17,SSE,158,0.9,0.9,83,0.00,,---,0.00,VWS V13.01,2013-12-10 21:21:00,
2013-12-10 16:22:00,30.0,25.5,29.17,SSE,158,0.0,0.9,83,0.00,,---,0.00,VWS V13.01,2013-12-10 21:22:00,
2013-12-10 16:25:00,30.0,25.5,29.17,SSE,158,0.0,0.0,83,0.00,,---,0.00,VWS V13.01,2013-12-10 21:25:00,
2013-12-10 16:26:00,30.0,25.5,29.17,SSE,158,0.0,0.0,83,0.00,,---,0.00,VWS V13.01,2013-12-10 21:26:00,
2013-12-10 16:27:00,30.0,25.5,29.17,SSE,158,0.0,1.1,83,0.00,,---,0.00,VWS V13.01,2013-12-10 21:27:00,
2013-12-10 16:30:00,29.7,25.4,29.17,SSE,158,0.0,1.6,84,0.00,,---,0.00,VWS V13.01,2013-12-10 21:30:00,
2013-12-10 16:32:00,29.7,25.4,29.17,SSE,158,0.0,0.0,84,0.00,,---,0.00,VWS V13.01,2013-12-10 21:32:00,
2013-12-10 16:34:00,29.7,25.4,29.17,SSE,158,0.0,0.0,84,0.00,,---,0.00,VWS V13.01,2013-12-10 21:34:00,
2013-12-10 16:35:00,29.7,25.4,29.17,SSE,158,0.0,0.0,84,0.00,,---,0.00,VWS V13.01,2013-12-10 21:35:00,
2013-12-10 16:36:00,29.7,25.4,29.17,SSE,158,0.0,0.0,84,0.00,,---,0.00,VWS V13.01,2013-12-10 21:36:00,
2013-12-10 16:37:00,29.7,25.4,29.17,SSE,158,0.0,0.0,84,0.00,,---,0.00,VWS V13.01,2013-12-10 21:37:00,
2013-12-10 16:38:00,29.7,25.4,29.17,SSE,158,0.0,0.0,84,0.00,,---,0.00,VWS V13.01,2013-12-10 21:38:00,
2013-12-10 16:42:00,29.7,25.4,29.17,SSE,158,0.0,0.0,84,0.00,,---,0.00,VWS V13.01,2013-12-10 21:42:00,
2013-12-10 16:43:00,29.7,25.4,29.17,SSE,158,0.0,0.0,84,0.00,,---,0.00,VWS V13.01,2013-12-10 21:43:00,
2013-12-10 16:45:00,29.7,25.4,29.17,SSE,158,0.0,0.0,84,0.00,,---,0.00,VWS V13.01,2013-12-10 21:45:00,
2013-12-10 16:47:00,29.7,25.4,29.17,SSE,158,0.0,0.0,84,0.00,,---,0.00,VWS V13.01,2013-12-10 21:47:00,
2013-12-10 16:48:00,29.7,25.4,29.17,SSE,158,0.0,0.0,84,0.00,,---,0.00,VWS V13.01,2013-12-10 21:48:00,
2013-12-10 16:49:00,29.7,25.4,29.17,SSE,158,0.0,0.0,84,0.00,,---,0.00,VWS V13.01,2013-12-10 21:49:00,
2013-12-10 16:50:00,29.7,25.4,29.17,SSE,158,0.0,0.0,84,0.00,,---,0.00,VWS V13.01,2013-12-10 21:50:00,
2013-12-10 16:52:00,28.9,24.7,29.17,SSE,158,0.0,0.0,84,0.00,,---,0.00,VWS V13.01,2013-12-10 21:52:00,
2013-12-10 16:53:00,28.9,24.7,29.17,SSE,158,0.0,0.0,84,0.00,,---,0.00,VWS V13.01,2013-12-10 21:53:00,
2013-12-10 16:54:00,28.9,24.7,29.17,SSE,158,2.9,2.9,84,0.00,,---,0.00,VWS V13.01,2013-12-10 21:54:00,
2013-12-10 16:56:00,28.9,24.7,29.17,SSE,158,0.0,2.2,84,0.00,,---,0.00,VWS V13.01,2013-12-10 21:56:00,
2013-12-10 16:57:00,28.9,24.7,29.17,SSE,158,0.0,0.0,84,0.00,,---,0.00,VWS V13.01,2013-12-10 21:57:00,
2013-12-10 16:58:00,28.9,24.7,29.17,SSE,158,1.1,1.1,84,0.00,,---,0.00,VWS V13.01,2013-12-10 21:58:00,
2013-12-10 17:00:00,28.9,24.7,29.17,SSE,158,0.9,1.1,84,0.00,,---,0.00,VWS V13.01,2013-12-10 22:00:00,
2013-12-10 17:01:00,28.9,24.7,29.17,SSE,158,0.0,0.0,84,0.00,,---,0.00,VWS V13.01,2013-12-10 22:01:00,
2013-12-10 17:02:00,28.9,24.7,29.17,SSE,158,0.0,0.0,84,0.00,,---,0.00,VWS V13.01,2013-12-10 22:02:00,
2013-12-10 17:03:00,28.9,24.7,29.17,SSE,158,0.0,0.0,84,0.00,,---,0.00,VWS V13.01,2013-12-10 22:03:00,
2013-12-10 17:04:00,28.9,24.7,29.20,SSE,158,0.0,0.0,84,0.00,,---,0.00,VWS V13.01,2013-12-10 22:04:00,
2013-12-10 17:06:00,28.9,24.7,29.20,SSE,158,0.0,0.0,84,0.00,,---,0.00,VWS V13.01,2013-12-10 22:06:00,
2013-12-10 17:08:00,28.9,24.7,29.20,SSE,158,0.0,0.0,84,0.00,,---,0.00,VWS V13.01,2013-12-10 22:08:00,
2013-12-10 17:09:00,28.9,24.7,29.20,SSE,158,0.0,0.0,84,0.00,,---,0.00,VWS V13.01,2013-12-10 22:09:00,
2013-12-10 17:10:00,28.9,24.7,29.20,SSE,158,0.0,0.0,84,0.00,,---,0.00,VWS V13.01,2013-12-10 22:10:00,
2013-12-10 17:14:00,28.6,24.6,29.20,SSE,158,0.9,0.9,85,0.00,,---,0.00,VWS V13.01,2013-12-10 22:14:00,
2013-12-10 17:17:00,28.6,24.6,29.20,SSE,158,0.0,0.0,85,0.00,,---,0.00,VWS V13.01,2013-12-10 22:17:00,
2013-12-10 17:18:00,28.6,24.6,29.20,SSE,158,0.0,0.0,85,0.00,,---,0.00,VWS V13.01,2013-12-10 22:18:00,
2013-12-10 17:22:00,28.6,24.6,29.20,SSE,158,0.0,2.7,85,0.00,,---,0.00,VWS V13.01,2013-12-10 22:22:00,
2013-12-10 17:23:00,28.6,24.6,29.20,SSE,158,0.0,0.0,85,0.00,,---,0.00,VWS V13.01,2013-12-10 22:23:00,
2013-12-10 17:24:00,28.6,24.6,29.20,SSE,158,0.0,0.0,85,0.00,,---,0.00,VWS V13.01,2013-12-10 22:24:00,
2013-12-10 17:25:00,28.6,24.6,29.20,SSE,158,0.0,0.0,85,0.00,,---,0.00,VWS V13.01,2013-12-10 22:25:00,
2013-12-10 17:27:00,28.6,24.6,29.20,SSE,158,1.3,1.6,85,0.00,,---,0.00,VWS V13.01,2013-12-10 22:27:00,
2013-12-10 17:29:00,28.6,24.6,29.20,SSE,158,0.0,1.3,85,0.00,,---,0.00,VWS V13.01,2013-12-10 22:29:00,
2013-12-10 17:30:00,28.6,24.6,29.20,SSE,158,2.7,2.7,85,0.00,,---,0.00,VWS V13.01,2013-12-10 22:30:00,
2013-12-10 17:32:00,28.6,24.6,29.20,SSE,158,1.3,2.7,85,0.00,,---,0.00,VWS V13.01,2013-12-10 22:32:00,
2013-12-10 17:33:00,28.6,24.6,29.20,SSE,158,1.6,1.6,85,0.00,,---,0.00,VWS V13.01,2013-12-10 22:33:00,
2013-12-10 17:34:00,28.6,24.6,29.20,SSE,158,0.9,1.6,85,0.00,,---,0.00,VWS V13.01,2013-12-10 22:34:00,
2013-12-10 17:38:00,28.6,24.6,29.20,SSE,158,0.0,2.2,85,0.00,,---,0.00,VWS V13.01,2013-12-10 22:38:00,
2013-12-10 17:39:00,28.6,24.6,29.20,SSE,158,0.0,0.0,85,0.00,,---,0.00,VWS V13.01,2013-12-10 22:39:00,
2013-12-10 17:41:00,28.6,24.6,29.20,SSE,158,0.0,1.1,85,0.00,,---,0.00,VWS V13.01,2013-12-10 22:41:00,
2013-12-10 17:43:00,28.6,24.6,29.20,SSE,158,1.3,1.3,85,0.00,,---,0.00,VWS V13.01,2013-12-10 22:43:00,
2013-12-10 17:45:00,28.2,24.3,29.20,SSE,158,0.0,0.9,85,0.00,,---,0.00,VWS V13.01,2013-12-10 22:45:00,
2013-12-10 17:46:00,28.2,24.3,29.20,SSE,158,0.0,0.0,85,0.00,,---,0.00,VWS V13.01,2013-12-10 22:46:00,
2013-12-10 17:48:00,28.2,24.3,29.20,SSE,158,0.0,0.0,85,0.00,,---,0.00,VWS V13.01,2013-12-10 22:48:00,
2013-12-10 17:50:00,28.2,24.3,29.20,SSE,158,2.7,2.7,85,0.00,,---,0.00,VWS V13.01,2013-12-10 22:50:00,
2013-12-10 17:51:00,28.2,24.3,29.20,SSE,158,1.6,2.7,85,0.00,,---,0.00,VWS V13.01,2013-12-10 22:51:00,
2013-12-10 17:53:00,28.2,24.3,29.20,SSE,158,2.0,2.0,85,0.00,,---,0.00,VWS V13.01,2013-12-10 22:53:00,
2013-12-10 17:54:00,28.2,24.3,29.20,SSE,158,1.3,2.0,85,0.00,,---,0.00,VWS V13.01,2013-12-10 22:54:00,
2013-12-10 17:56:00,28.2,24.3,29.20,SSE,158,0.0,0.0,85,0.00,,---,0.00,VWS V13.01,2013-12-10 22:56:00,
2013-12-10 17:59:00,28.2,24.3,29.20,SSE,158,0.9,2.0,85,0.00,,---,0.00,VWS V13.01,2013-12-10 22:59:00,
2013-12-10 18:00:00,28.2,24.3,29.20,SSE,158,2.9,2.9,85,0.00,,---,0.00,VWS V13.01,2013-12-10 23:00:00,
2013-12-10 18:04:00,28.2,24.3,29.20,SSE,158,3.4,3.4,85,0.00,,---,0.00,VWS V13.01,2013-12-10 23:04:00,
2013-12-10 18:06:00,28.2,24.3,29.20,SSE,158,2.0,2.0,85,0.00,,---,0.00,VWS V13.01,2013-12-10 23:06:00,
2013-12-10 18:07:00,28.2,24.3,29.20,SSE,158,0.0,2.0,85,0.00,,---,0.00,VWS V13.01,2013-12-10 23:07:00,
2013-12-10 18:08:00,27.7,23.2,29.20,SSE,158,1.6,1.6,83,0.00,,---,0.00,VWS V13.01,2013-12-10 23:08:00,
2013-12-10 18:09:00,27.7,23.2,29.20,SSE,158,1.1,1.6,83,0.00,,---,0.00,VWS V13.01,2013-12-10 23:09:00,
2013-12-10 18:10:00,27.7,23.2,29.23,SSE,158,1.3,1.3,83,0.00,,---,0.00,VWS V13.01,2013-12-10 23:10:00,
2013-12-10 18:11:00,27.7,23.2,29.23,SSE,158,1.3,1.3,83,0.00,,---,0.00,VWS V13.01,2013-12-10 23:11:00,
2013-12-10 18:12:00,27.7,23.2,29.23,SSE,158,0.0,1.3,83,0.00,,---,0.00,VWS V13.01,2013-12-10 23:12:00,
2013-12-10 18:16:00,27.7,23.2,29.23,SSE,158,2.0,2.0,83,0.00,,---,0.00,VWS V13.01,2013-12-10 23:16:00,
2013-12-10 18:17:00,27.7,23.2,29.23,SSE,158,0.0,2.0,83,0.00,,---,0.00,VWS V13.01,2013-12-10 23:17:00,
2013-12-10 18:18:00,27.7,23.2,29.23,SSE,158,2.0,2.0,83,0.00,,---,0.00,VWS V13.01,2013-12-10 23:18:00,
2013-12-10 18:21:00,27.7,23.2,29.23,SSE,158,0.0,1.6,83,0.00,,---,0.00,VWS V13.01,2013-12-10 23:21:00,
2013-12-10 18:24:00,27.7,23.2,29.23,SSE,158,0.9,0.9,83,0.00,,---,0.00,VWS V13.01,2013-12-10 23:24:00,
2013-12-10 18:26:00,27.7,23.2,29.23,SSE,158,0.0,0.0,83,0.00,,---,0.00,VWS V13.01,2013-12-10 23:26:00,
2013-12-10 18:27:00,27.7,23.2,29.23,SSE,158,0.9,0.9,83,0.00,,---,0.00,VWS V13.01,2013-12-10 23:27:00,
2013-12-10 18:29:00,27.7,23.2,29.23,SSE,158,1.1,2.0,83,0.00,,---,0.00,VWS V13.01,2013-12-10 23:29:00,
2013-12-10 18:32:00,27.7,23.2,29.23,SSE,158,0.0,0.0,83,0.00,,---,0.00,VWS V13.01,2013-12-10 23:32:00,
2013-12-10 18:33:00,27.7,23.2,29.23,SSE,158,0.0,0.0,83,0.00,,---,0.00,VWS V13.01,2013-12-10 23:33:00,
2013-12-10 18:35:00,27.7,23.2,29.23,SSE,158,1.3,2.0,83,0.00,,---,0.00,VWS V13.01,2013-12-10 23:35:00,
2013-12-10 18:37:00,27.1,22.1,29.23,SSE,158,2.0,2.0,81,0.00,,---,0.00,VWS V13.01,2013-12-10 23:37:00,
2013-12-10 18:38:00,27.1,22.1,29.23,SSE,158,0.0,2.0,81,0.00,,---,0.00,VWS V13.01,2013-12-10 23:38:00,
2013-12-10 18:39:00,27.1,22.1,29.23,SSE,158,0.9,0.9,81,0.00,,---,0.00,VWS V13.01,2013-12-10 23:39:00,
2013-12-10 18:40:00,27.1,22.1,29.23,SSE,158,0.0,0.9,81,0.00,,---,0.00,VWS V13.01,2013-12-10 23:40:00,
2013-12-10 18:41:00,27.1,22.1,29.23,SSE,158,0.0,0.0,81,0.00,,---,0.00,VWS V13.01,2013-12-10 23:41:00,
2013-12-10 18:43:00,27.1,22.1,29.23,SSE,158,0.0,0.0,81,0.00,,---,0.00,VWS V13.01,2013-12-10 23:43:00,
2013-12-10 18:46:00,27.1,22.1,29.23,SSE,158,2.2,2.2,81,0.00,,---,0.00,VWS V13.01,2013-12-10 23:46:00,
2013-12-10 18:47:00,27.1,22.1,29.23,SSE,158,0.0,2.2,81,0.00,,---,0.00,VWS V13.01,2013-12-10 23:47:00,
2013-12-10 18:48:00,27.1,22.1,29.23,SSE,158,0.0,0.0,81,0.00,,---,0.00,VWS V13.01,2013-12-10 23:48:00,
2013-12-10 18:52:00,27.1,22.1,29.23,SSE,158,0.0,0.0,81,0.00,,---,0.00,VWS V13.01,2013-12-10 23:52:00,
2013-12-10 18:53:00,27.1,22.1,29.23,SSE,158,0.0,0.0,81,0.00,,---,0.00,VWS V13.01,2013-12-10 23:53:00,
2013-12-10 18:54:00,27.1,22.1,29.23,SSE,158,2.0,2.0,81,0.00,,---,0.00,VWS V13.01,2013-12-10 23:54:00,
2013-12-10 18:57:00,27.1,22.1,29.23,SSE,158,2.0,2.0,81,0.00,,---,0.00,VWS V13.01,2013-12-10 23:57:00,
2013-12-10 18:59:00,27.0,21.6,29.23,SSE,158,0.0,2.7,80,0.00,,---,0.00,VWS V13.01,2013-12-10 23:59:00,
2013-12-10 19:00:00,27.0,21.6,29.23,SSE,158,2.7,2.7,80,0.00,,---,0.00,VWS V13.01,2013-12-11 00:00:00,
2013-12-10 19:01:00,27.0,21.6,29.23,SSE,158,1.3,2.7,80,0.00,,---,0.00,VWS V13.01,2013-12-11 00:01:00,
2013-12-10 19:03:00,27.0,21.6,29.23,SSE,158,0.0,2.2,80,0.00,,---,0.00,VWS V13.01,2013-12-11 00:03:00,
2013-12-10 19:06:00,27.0,21.6,29.23,SSE,158,0.0,1.3,80,0.00,,---,0.00,VWS V13.01,2013-12-11 00:06:00,
2013-12-10 19:07:00,27.0,21.6,29.23,SSE,158,0.0,1.3,80,0.00,,---,0.00,VWS V13.01,2013-12-11 00:07:00,
2013-12-10 19:09:00,27.0,21.6,29.23,SSE,158,1.1,2.7,80,0.00,,---,0.00,VWS V13.01,2013-12-11 00:09:00,
2013-12-10 19:12:00,27.0,21.6,29.23,SSE,158,0.0,1.1,80,0.00,,---,0.00,VWS V13.01,2013-12-11 00:12:00,
2013-12-10 19:14:00,27.0,21.6,29.23,SSE,158,2.9,2.9,80,0.00,,---,0.00,VWS V13.01,2013-12-11 00:14:00,
2013-12-10 19:16:00,27.0,21.6,29.23,SSE,158,1.1,1.1,80,0.00,,---,0.00,VWS V13.01,2013-12-11 00:16:00,
2013-12-10 19:17:00,27.0,21.6,29.23,SSE,158,0.0,1.1,80,0.00,,---,0.00,VWS V13.01,2013-12-11 00:17:00,
2013-12-10 19:18:00,27.0,21.6,29.23,SSE,158,2.2,2.2,80,0.00,,---,0.00,VWS V13.01,2013-12-11 00:18:00,
2013-12-10 19:21:00,27.0,21.6,29.23,SSE,158,0.0,1.1,80,0.00,,---,0.00,VWS V13.01,2013-12-11 00:21:00,
2013-12-10 19:22:00,27.0,21.6,29.23,SSE,158,0.0,0.0,80,0.00,,---,0.00,VWS V13.01,2013-12-11 00:22:00,
2013-12-10 19:23:00,27.0,21.6,29.23,SSE,158,2.2,2.2,80,0.00,,---,0.00,VWS V13.01,2013-12-11 00:23:00,
2013-12-10 19:24:00,27.0,21.6,29.26,SSE,158,2.2,2.2,80,0.00,,---,0.00,VWS V13.01,2013-12-11 00:24:00,
2013-12-10 19:29:00,27.0,21.6,29.26,SSE,158,1.3,3.4,80,0.00,,---,0.00,VWS V13.01,2013-12-11 00:29:00,
2013-12-10 19:30:00,27.0,21.6,29.26,SSE,158,2.2,2.2,80,0.00,,---,0.00,VWS V13.01,2013-12-11 00:30:00,
2013-12-10 19:31:00,27.0,21.6,29.26,SSE,158,2.0,2.2,80,0.00,,---,0.00,VWS V13.01,2013-12-11 00:31:00,
2013-12-10 19:32:00,27.0,21.6,29.26,SSE,158,1.6,2.7,80,0.00,,---,0.00,VWS V13.01,2013-12-11 00:32:00,
2013-12-10 19:33:00,27.0,21.6,29.26,SSE,158,1.6,2.7,80,0.00,,---,0.00,VWS V13.01,2013-12-11 00:33:00,
2013-12-10 19:35:00,27.0,21.6,29.26,SSE,158,2.5,2.5,80,0.00,,---,0.00,VWS V13.01,2013-12-11 00:35:00,
2013-12-10 19:36:00,27.0,21.6,29.26,SSE,158,2.5,2.5,80,0.00,,---,0.00,VWS V13.01,2013-12-11 00:36:00,
2013-12-10 19:37:00,27.0,21.6,29.26,SSE,158,2.5,2.5,80,0.00,,---,0.00,VWS V13.01,2013-12-11 00:37:00,
2013-12-10 19:39:00,27.0,21.6,29.26,SSE,158,2.5,2.5,80,0.00,,---,0.00,VWS V13.01,2013-12-11 00:39:00,
2013-12-10 19:40:00,27.0,21.6,29.26,SSE,158,2.9,2.9,80,0.00,,---,0.00,VWS V13.01,2013-12-11 00:40:00,
2013-12-10 19:43:00,27.0,21.6,29.26,SSE,158,0.0,0.0,80,0.00,,---,0.00,VWS V13.01,2013-12-11 00:43:00,
2013-12-10 19:44:00,27.0,21.6,29.26,SSE,158,0.0,0.0,80,0.00,,---,0.00,VWS V13.01,2013-12-11 00:44:00,
2013-12-10 19:46:00,26.4,21.1,29.26,SSE,158,3.1,3.1,80,0.00,,---,0.00,VWS V13.01,2013-12-11 00:46:00,
2013-12-10 19:47:00,26.4,21.1,29.26,SSE,158,3.1,3.1,80,0.00,,---,0.00,VWS V13.01,2013-12-11 00:47:00,
2013-12-10 19:49:00,26.4,21.1,29.26,SSE,158,0.0,0.9,80,0.00,,---,0.00,VWS V13.01,2013-12-11 00:49:00,
2013-12-10 19:50:00,26.4,21.1,29.26,SSE,158,1.3,1.3,80,0.00,,---,0.00,VWS V13.01,2013-12-11 00:50:00,
2013-12-10 19:51:00,26.4,21.1,29.26,SSE,158,1.3,1.3,80,0.00,,---,0.00,VWS V13.01,2013-12-11 00:51:00,
2013-12-10 19:52:00,26.6,21.3,29.26,SSE,158,0.0,1.3,80,0.00,,---,0.00,VWS V13.01,2013-12-11 00:52:00,
2013-12-10 19:55:00,26.6,21.3,29.26,SSE,158,2.5,2.5,80,0.00,,---,0.00,VWS V13.01,2013-12-11 00:55:00,
2013-12-10 19:56:00,26.4,21.1,29.29,SSE,158,0.0,0.0,80,0.00,,---,0.00,VWS V13.01,2013-12-11 00:56:00,
2013-12-10 19:57:00,26.4,21.1,29.29,SSE,158,2.7,2.7,80,0.00,,---,0.00,VWS V13.01,2013-12-11 00:57:00,
2013-12-10 19:58:00,26.4,21.1,29.29,SSE,158,2.7,2.7,80,0.00,,---,0.00,VWS V13.01,2013-12-11 00:58:00,
2013-12-10 20:00:00,26.4,21.1,29.29,SSE,158,0.0,1.3,80,0.00,,---,0.00,VWS V13.01,2013-12-11 01:00:00,
2013-12-10 20:02:00,26.4,21.1,29.29,SSE,158,0.0,1.3,80,0.00,,---,0.00,VWS V13.01,2013-12-11 01:02:00,
2013-12-10 20:04:00,26.4,21.1,29.29,SSE,158,0.0,0.0,80,0.00,,---,0.00,VWS V13.01,2013-12-11 01:04:00,
2013-12-10 20:07:00,26.4,21.1,29.29,SSE,158,0.0,0.0,80,0.00,,---,0.00,VWS V13.01,2013-12-11 01:07:00,
2013-12-10 20:08:00,26.4,21.1,29.29,SSE,158,0.0,0.0,80,0.00,,---,0.00,VWS V13.01,2013-12-11 01:08:00,
2013-12-10 20:09:00,26.4,21.1,29.29,SSE,158,0.0,0.0,80,0.00,,---,0.00,VWS V13.01,2013-12-11 01:09:00,
2013-12-10 20:10:00,26.4,21.1,29.29,SSE,158,0.0,0.0,80,0.00,,---,0.00,VWS V13.01,2013-12-11 01:10:00,
2013-12-10 20:12:00,26.4,21.1,29.29,SSE,158,2.0,2.0,80,0.00,,---,0.00,VWS V13.01,2013-12-11 01:12:00,
2013-12-10 20:13:00,26.4,21.1,29.29,SSE,158,0.0,2.0,80,0.00,,---,0.00,VWS V13.01,2013-12-11 01:13:00,
2013-12-10 20:15:00,26.4,21.1,29.29,SSE,158,0.0,0.0,80,0.00,,---,0.00,VWS V13.01,2013-12-11 01:15:00,
2013-12-10 20:16:00,26.2,21.2,29.29,SSE,158,0.0,0.0,81,0.00,,---,0.00,VWS V13.01,2013-12-11 01:16:00,
2013-12-10 20:17:00,26.2,21.2,29.29,SSE,158,0.0,0.0,81,0.00,,---,0.00,VWS V13.01,2013-12-11 01:17:00,
2013-12-10 20:18:00,26.2,21.2,29.29,SSE,158,0.0,0.0,81,0.00,,---,0.00,VWS V13.01,2013-12-11 01:18:00,
2013-12-10 20:20:00,26.1,21.0,29.29,SSE,158,0.0,0.0,81,0.00,,---,0.00,VWS V13.01,2013-12-11 01:20:00,
2013-12-10 20:21:00,26.1,21.0,29.29,SSE,158,0.0,0.0,81,0.00,,---,0.00,VWS V13.01,2013-12-11 01:21:00,
2013-12-10 20:22:00,26.1,21.0,29.29,SSE,158,0.0,0.0,81,0.00,,---,0.00,VWS V13.01,2013-12-11 01:22:00,
2013-12-10 20:23:00,26.1,21.0,29.29,SSE,158,0.0,0.0,81,0.00,,---,0.00,VWS V13.01,2013-12-11 01:23:00,
2013-12-10 20:24:00,26.1,21.0,29.29,SSE,158,0.0,0.0,81,0.00,,---,0.00,VWS V13.01,2013-12-11 01:24:00,
2013-12-10 20:26:00,26.1,21.0,29.29,SSE,158,0.0,0.0,81,0.00,,---,0.00,VWS V13.01,2013-12-11 01:26:00,
2013-12-10 20:28:00,25.7,20.7,29.29,SSE,158,0.0,0.0,81,0.00,,---,0.00,VWS V13.01,2013-12-11 01:28:00,
2013-12-10 20:29:00,25.7,20.7,29.29,SSE,158,0.0,0.0,81,0.00,,---,0.00,VWS V13.01,2013-12-11 01:29:00,
2013-12-10 20:34:00,25.7,20.7,29.29,SSE,158,0.0,0.0,81,0.00,,---,0.00,VWS V13.01,2013-12-11 01:34:00,
2013-12-10 20:35:00,25.7,20.7,29.29,SSE,158,0.0,0.0,81,0.00,,---,0.00,VWS V13.01,2013-12-11 01:35:00,
2013-12-10 20:37:00,25.7,20.7,29.29,SSE,158,0.0,0.0,81,0.00,,---,0.00,VWS V13.01,2013-12-11 01:37:00,
2013-12-10 20:38:00,25.7,20.7,29.29,SSE,158,0.0,0.0,81,0.00,,---,0.00,VWS V13.01,2013-12-11 01:38:00,
2013-12-10 20:39:00,25.7,20.7,29.29,SSE,158,0.0,0.0,81,0.00,,---,0.00,VWS V13.01,2013-12-11 01:39:00,
2013-12-10 20:41:00,25.3,20.3,29.29,SSE,158,0.0,0.0,81,0.00,,---,0.00,VWS V13.01,2013-12-11 01:41:00,
2013-12-10 20:42:00,25.3,20.3,29.29,SSE,158,0.0,0.0,81,0.00,,---,0.00,VWS V13.01,2013-12-11 01:42:00,
2013-12-10 20:43:00,25.3,20.3,29.29,SSE,158,0.0,0.0,81,0.00,,---,0.00,VWS V13.01,2013-12-11 01:43:00,
2013-12-10 20:44:00,25.3,20.3,29.29,SSE,158,0.0,0.0,81,0.00,,---,0.00,VWS V13.01,2013-12-11 01:44:00,
2013-12-10 20:45:00,25.3,20.3,29.29,SSE,158,0.0,0.0,81,0.00,,---,0.00,VWS V13.01,2013-12-11 01:45:00,
2013-12-10 20:47:00,25.2,20.2,29.29,SSE,158,0.0,0.0,81,0.00,,---,0.00,VWS V13.01,2013-12-11 01:47:00,
2013-12-10 20:48:00,25.2,20.2,29.29,SSE,158,0.0,0.0,81,0.00,,---,0.00,VWS V13.01,2013-12-11 01:48:00,
2013-12-10 20:50:00,25.2,20.2,29.29,SSE,158,0.0,0.9,81,0.00,,---,0.00,VWS V13.01,2013-12-11 01:50:00,
2013-12-10 20:52:00,25.2,20.2,29.29,SSE,158,0.0,0.0,81,0.00,,---,0.00,VWS V13.01,2013-12-11 01:52:00,
2013-12-10 20:53:00,25.2,20.2,29.29,SSE,158,0.0,0.0,81,0.00,,---,0.00,VWS V13.01,2013-12-11 01:53:00,
2013-12-10 20:55:00,24.6,19.6,29.29,SSE,158,0.0,0.0,81,0.00,,---,0.00,VWS V13.01,2013-12-11 01:55:00,
2013-12-10 20:56:00,24.6,19.6,29.29,SSE,158,0.0,0.0,81,0.00,,---,0.00,VWS V13.01,2013-12-11 01:56:00,
2013-12-10 20:57:00,24.6,19.6,29.29,SSE,158,0.0,0.0,81,0.00,,---,0.00,VWS V13.01,2013-12-11 01:57:00,
2013-12-10 20:58:00,24.6,19.6,29.29,SSE,158,0.0,0.0,81,0.00,,---,0.00,VWS V13.01,2013-12-11 01:58:00,
2013-12-10 20:59:00,24.6,19.6,29.29,SSE,158,0.0,0.0,81,0.00,,---,0.00,VWS V13.01,2013-12-11 01:59:00,
2013-12-10 21:01:00,24.4,19.5,29.29,SSE,158,0.0,0.0,81,0.00,,---,0.00,VWS V13.01,2013-12-11 02:01:00,
2013-12-10 21:03:00,24.4,19.5,29.29,SSE,158,0.0,0.0,81,0.00,,---,0.00,VWS V13.01,2013-12-11 02:03:00,
2013-12-10 21:04:00,24.4,19.5,29.29,SSE,158,0.0,0.0,81,0.00,,---,0.00,VWS V13.01,2013-12-11 02:04:00,
2013-12-10 21:06:00,24.4,19.5,29.29,SSE,158,0.0,0.0,81,0.00,,---,0.00,VWS V13.01,2013-12-11 02:06:00,
2013-12-10 21:08:00,24.4,19.5,29.29,SSE,158,0.0,0.0,81,0.00,,---,0.00,VWS V13.01,2013-12-11 02:08:00,
2013-12-10 21:10:00,24.4,19.5,29.29,SSE,158,0.0,0.0,81,0.00,,---,0.00,VWS V13.01,2013-12-11 02:10:00,
2013-12-10 21:12:00,24.4,19.5,29.29,SSE,158,0.0,0.0,81,0.00,,---,0.00,VWS V13.01,2013-12-11 02:12:00,
2013-12-10 21:14:00,24.4,19.5,29.29,SSE,158,0.0,0.0,81,0.00,,---,0.00,VWS V13.01,2013-12-11 02:14:00,
2013-12-10 21:16:00,24.4,19.5,29.29,SSE,158,0.0,0.0,81,0.00,,---,0.00,VWS V13.01,2013-12-11 02:16:00,
2013-12-10 21:17:00,24.4,19.5,29.29,SSE,158,0.0,0.0,81,0.00,,---,0.00,VWS V13.01,2013-12-11 02:17:00,
2013-12-10 21:19:00,24.3,19.6,29.29,SSE,158,0.0,0.0,82,0.00,,---,0.00,VWS V13.01,2013-12-11 02:19:00,
2013-12-10 21:20:00,24.3,19.6,29.29,SSE,158,0.0,0.0,82,0.00,,---,0.00,VWS V13.01,2013-12-11 02:20:00,
2013-12-10 21:22:00,24.3,19.6,29.29,SSE,158,0.0,0.0,82,0.00,,---,0.00,VWS V13.01,2013-12-11 02:22:00,
2013-12-10 21:23:00,24.3,19.6,29.29,SSE,158,2.5,2.5,82,0.00,,---,0.00,VWS V13.01,2013-12-11 02:23:00,
2013-12-10 21:24:00,24.3,19.6,29.29,SSE,158,2.5,2.5,82,0.00,,---,0.00,VWS V13.01,2013-12-11 02:24:00,
2013-12-10 21:25:00,24.3,19.6,29.29,SSE,158,0.0,2.5,82,0.00,,---,0.00,VWS V13.01,2013-12-11 02:25:00,
2013-12-10 21:26:00,24.4,19.7,29.29,SSE,158,0.0,0.0,82,0.00,,---,0.00,VWS V13.01,2013-12-11 02:26:00,
2013-12-10 21:27:00,24.4,19.7,29.29,SSE,158,0.0,0.0,82,0.00,,---,0.00,VWS V13.01,2013-12-11 02:27:00,
2013-12-10 21:29:00,24.4,19.7,29.29,SSE,158,0.0,0.0,82,0.00,,---,0.00,VWS V13.01,2013-12-11 02:29:00,
2013-12-10 21:30:00,24.4,19.7,29.29,SSE,158,0.0,0.0,82,0.00,,---,0.00,VWS V13.01,2013-12-11 02:30:00,
2013-12-10 21:31:00,24.4,19.7,29.29,SSE,158,0.0,0.0,82,0.00,,---,0.00,VWS V13.01,2013-12-11 02:31:00,
2013-12-10 21:32:00,24.4,19.7,29.29,SSE,158,0.0,0.0,82,0.00,,---,0.00,VWS V13.01,2013-12-11 02:32:00,
2013-12-10 21:33:00,24.4,19.7,29.29,SSE,158,0.0,0.0,82,0.00,,---,0.00,VWS V13.01,2013-12-11 02:33:00,
2013-12-10 21:34:00,24.4,19.7,29.29,SSE,158,0.0,0.0,82,0.00,,---,0.00,VWS V13.01,2013-12-11 02:34:00,
2013-12-10 21:35:00,24.4,19.7,29.29,SSE,158,0.0,0.0,82,0.00,,---,0.00,VWS V13.01,2013-12-11 02:35:00,
2013-12-10 21:36:00,24.4,19.7,29.29,SSE,158,0.0,0.0,82,0.00,,---,0.00,VWS V13.01,2013-12-11 02:36:00,
2013-12-10 21:37:00,24.4,19.7,29.29,SSE,158,0.0,0.0,82,0.00,,---,0.00,VWS V13.01,2013-12-11 02:37:00,
2013-12-10 21:39:00,24.6,20.2,29.29,SSE,158,0.0,0.0,83,0.00,,---,0.00,VWS V13.01,2013-12-11 02:39:00,
2013-12-10 21:40:00,24.8,20.4,29.29,SSE,158,0.0,0.0,83,0.00,,---,0.00,VWS V13.01,2013-12-11 02:40:00,
2013-12-10 21:41:00,24.8,20.4,29.29,SSE,158,0.0,0.0,83,0.00,,---,0.00,VWS V13.01,2013-12-11 02:41:00,
2013-12-10 21:43:00,24.8,20.4,29.29,SSE,158,0.0,0.0,83,0.00,,---,0.00,VWS V13.01,2013-12-11 02:43:00,
2013-12-10 21:45:00,24.8,20.4,29.29,SSE,158,0.0,0.0,83,0.00,,---,0.00,VWS V13.01,2013-12-11 02:45:00,
2013-12-10 21:46:00,24.8,20.4,29.29,SSE,158,0.0,0.0,83,0.00,,---,0.00,VWS V13.01,2013-12-11 02:46:00,
2013-12-10 21:47:00,24.8,20.4,29.29,SSE,158,0.0,0.0,83,0.00,,---,0.00,VWS V13.01,2013-12-11 02:47:00,
2013-12-10 21:48:00,24.8,20.4,29.29,SSE,158,0.0,0.0,83,0.00,,---,0.00,VWS V13.01,2013-12-11 02:48:00,
2013-12-10 21:49:00,24.8,20.4,29.29,SSE,158,0.0,0.0,83,0.00,,---,0.00,VWS V13.01,2013-12-11 02:49:00,
2013-12-10 21:52:00,24.8,20.4,29.29,SSE,158,1.6,1.6,83,0.00,,---,0.00,VWS V13.01,2013-12-11 02:52:00,
2013-12-10 21:53:00,24.8,20.4,29.29,SSE,158,1.6,1.6,83,0.00,,---,0.00,VWS V13.01,2013-12-11 02:53:00,
2013-12-10 21:55:00,24.8,20.4,29.29,SSE,158,0.0,1.6,83,0.00,,---,0.00,VWS V13.01,2013-12-11 02:55:00,
2013-12-10 21:58:00,24.8,20.4,29.29,SSE,158,0.0,0.0,83,0.00,,---,0.00,VWS V13.01,2013-12-11 02:58:00,
2013-12-10 21:59:00,24.8,20.4,29.29,SSE,158,0.0,0.0,83,0.00,,---,0.00,VWS V13.01,2013-12-11 02:59:00,
2013-12-10 22:00:00,24.8,20.4,29.29,SSE,158,0.0,0.0,83,0.00,,---,0.00,VWS V13.01,2013-12-11 03:00:00,
2013-12-10 22:01:00,24.8,20.1,29.32,SSE,158,0.0,0.0,82,0.00,,---,0.00,VWS V13.01,2013-12-11 03:01:00,
2013-12-10 22:03:00,24.8,20.1,29.32,SSE,158,0.0,0.0,82,0.00,,---,0.00,VWS V13.01,2013-12-11 03:03:00,
2013-12-10 22:04:00,24.8,20.1,29.32,SSE,158,0.0,0.0,82,0.00,,---,0.00,VWS V13.01,2013-12-11 03:04:00,
2013-12-10 22:05:00,24.8,20.1,29.32,SSE,158,0.0,0.0,82,0.00,,---,0.00,VWS V13.01,2013-12-11 03:05:00,
2013-12-10 22:06:00,24.8,20.1,29.32,SSE,158,0.0,0.0,82,0.00,,---,0.00,VWS V13.01,2013-12-11 03:06:00,
2013-12-10 22:07:00,24.8,20.1,29.32,SSE,158,0.0,0.0,82,0.00,,---,0.00,VWS V13.01,2013-12-11 03:07:00,
2013-12-10 22:08:00,24.8,20.1,29.32,SSE,158,0.0,0.0,82,0.00,,---,0.00,VWS V13.01,2013-12-11 03:08:00,
2013-12-10 22:10:00,24.8,20.1,29.32,SSE,158,0.0,0.0,82,0.00,,---,0.00,VWS V13.01,2013-12-11 03:10:00,
2013-12-10 22:13:00,24.8,20.1,29.32,SSE,158,0.0,0.0,82,0.00,,---,0.00,VWS V13.01,2013-12-11 03:13:00,
2013-12-10 22:14:00,24.8,20.1,29.32,SSE,158,0.0,0.0,82,0.00,,---,0.00,VWS V13.01,2013-12-11 03:14:00,
2013-12-10 22:15:00,24.3,19.6,29.32,SSE,158,0.0,0.0,82,0.00,,---,0.00,VWS V13.01,2013-12-11 03:15:00,
2013-12-10 22:16:00,24.3,19.6,29.32,SSE,158,0.0,0.0,82,0.00,,---,0.00,VWS V13.01,2013-12-11 03:16:00,
2013-12-10 22:18:00,24.3,19.6,29.32,SSE,158,0.0,0.0,82,0.00,,---,0.00,VWS V13.01,2013-12-11 03:18:00,
2013-12-10 22:19:00,24.3,19.6,29.32,SSE,158,0.0,0.0,82,0.00,,---,0.00,VWS V13.01,2013-12-11 03:19:00,
2013-12-10 22:20:00,24.3,19.6,29.32,SSE,158,0.0,0.0,82,0.00,,---,0.00,VWS V13.01,2013-12-11 03:20:00,
2013-12-10 22:22:00,24.3,19.6,29.32,SSE,158,0.0,0.0,82,0.00,,---,0.00,VWS V13.01,2013-12-11 03:22:00,
2013-12-10 22:24:00,24.3,19.6,29.32,SSE,158,0.0,0.0,82,0.00,,---,0.00,VWS V13.01,2013-12-11 03:24:00,
2013-12-10 22:25:00,24.3,19.6,29.32,SSE,158,0.0,0.0,82,0.00,,---,0.00,VWS V13.01,2013-12-11 03:25:00,
2013-12-10 22:26:00,24.3,19.6,29.32,SSE,158,0.0,0.0,82,0.00,,---,0.00,VWS V13.01,2013-12-11 03:26:00,
2013-12-10 22:27:00,24.3,19.6,29.32,SSE,158,0.0,0.0,82,0.00,,---,0.00,VWS V13.01,2013-12-11 03:27:00,
2013-12-10 22:29:00,23.5,18.6,29.32,SSE,158,0.0,0.0,81,0.00,,---,0.00,VWS V13.01,2013-12-11 03:29:00,
2013-12-10 22:33:00,23.5,18.6,29.32,SSE,158,0.0,0.9,81,0.00,,---,0.00,VWS V13.01,2013-12-11 03:33:00,
2013-12-10 22:34:00,23.5,18.6,29.32,SSE,158,0.0,0.0,81,0.00,,---,0.00,VWS V13.01,2013-12-11 03:34:00,
2013-12-10 22:35:00,23.5,18.6,29.32,SSE,158,0.0,0.0,81,0.00,,---,0.00,VWS V13.01,2013-12-11 03:35:00,
2013-12-10 22:36:00,23.5,18.6,29.32,SSE,158,0.0,0.0,81,0.00,,---,0.00,VWS V13.01,2013-12-11 03:36:00,
2013-12-10 22:39:00,23.5,18.6,29.32,SSE,158,0.0,0.0,81,0.00,,---,0.00,VWS V13.01,2013-12-11 03:39:00,
2013-12-10 22:40:00,23.5,18.6,29.32,SSE,158,0.9,0.9,81,0.00,,---,0.00,VWS V13.01,2013-12-11 03:40:00,
2013-12-10 22:45:00,23.7,19.0,29.32,SSE,158,0.0,0.0,82,0.00,,---,0.00,VWS V13.01,2013-12-11 03:45:00,
2013-12-10 22:46:00,23.7,19.0,29.32,SSE,158,0.0,0.0,82,0.00,,---,0.00,VWS V13.01,2013-12-11 03:46:00,
2013-12-10 22:47:00,23.7,19.0,29.32,SSE,158,0.0,0.0,82,0.00,,---,0.00,VWS V13.01,2013-12-11 03:47:00,
2013-12-10 22:49:00,23.7,19.0,29.32,SSE,158,2.0,2.0,82,0.00,,---,0.00,VWS V13.01,2013-12-11 03:49:00,
2013-12-10 22:50:00,23.7,19.0,29.32,SSE,158,0.0,2.0,82,0.00,,---,0.00,VWS V13.01,2013-12-11 03:50:00,
2013-12-10 22:52:00,23.7,19.0,29.32,SSE,158,0.0,0.0,82,0.00,,---,0.00,VWS V13.01,2013-12-11 03:52:00,
2013-12-10 22:53:00,23.7,19.0,29.32,SSE,158,0.0,0.0,82,0.00,,---,0.00,VWS V13.01,2013-12-11 03:53:00,
2013-12-10 22:56:00,23.7,18.8,29.32,SSE,158,0.0,0.0,81,0.00,,---,0.00,VWS V13.01,2013-12-11 03:56:00,
2013-12-10 22:57:00,23.7,18.8,29.32,SSE,158,0.0,0.0,81,0.00,,---,0.00,VWS V13.01,2013-12-11 03:57:00,
2013-12-10 22:59:00,23.7,18.8,29.32,SSE,158,0.0,0.0,81,0.00,,---,0.00,VWS V13.01,2013-12-11 03:59:00,
2013-12-10 23:00:00,23.7,18.8,29.32,SSE,158,0.0,0.0,81,0.00,,---,0.00,VWS V13.01,2013-12-11 04:00:00,
2013-12-10 23:02:00,23.7,18.8,29.32,SSE,158,0.0,0.0,81,0.00,,---,0.00,VWS V13.01,2013-12-11 04:02:00,
2013-12-10 23:03:00,23.7,18.8,29.32,SSE,158,0.0,0.0,81,0.00,,---,0.00,VWS V13.01,2013-12-11 04:03:00,
2013-12-10 23:05:00,23.5,18.6,29.32,SSE,158,0.0,0.0,81,0.00,,---,0.00,VWS V13.01,2013-12-11 04:05:00,
2013-12-10 23:06:00,23.5,18.6,29.32,SSE,158,2.2,2.2,81,0.00,,---,0.00,VWS V13.01,2013-12-11 04:06:00,
2013-12-10 23:08:00,23.5,18.6,29.32,SSE,158,0.0,1.3,81,0.00,,---,0.00,VWS V13.01,2013-12-11 04:08:00,
2013-12-10 23:09:00,23.5,18.6,29.35,SSE,158,0.0,1.3,81,0.00,,---,0.00,VWS V13.01,2013-12-11 04:09:00,
2013-12-10 23:11:00,23.5,18.6,29.35,SSE,158,0.0,0.0,81,0.00,,---,0.00,VWS V13.01,2013-12-11 04:11:00,
2013-12-10 23:12:00,23.5,18.6,29.35,SSE,158,0.0,0.0,81,0.00,,---,0.00,VWS V13.01,2013-12-11 04:12:00,
2013-12-10 23:13:00,23.5,18.6,29.35,SSE,158,1.3,1.3,81,0.00,,---,0.00,VWS V13.01,2013-12-11 04:13:00,
2013-12-10 23:15:00,23.5,18.6,29.35,SSE,158,0.0,0.0,81,0.00,,---,0.00,VWS V13.01,2013-12-11 04:15:00,
2013-12-10 23:17:00,23.5,18.6,29.35,SSE,158,0.0,0.0,81,0.00,,---,0.00,VWS V13.01,2013-12-11 04:17:00,
2013-12-10 23:18:00,23.5,18.6,29.35,SSE,158,0.0,0.0,81,0.00,,---,0.00,VWS V13.01,2013-12-11 04:18:00,
2013-12-10 23:19:00,23.5,18.6,29.35,SSE,158,0.0,0.0,81,0.00,,---,0.00,VWS V13.01,2013-12-11 04:19:00,
2013-12-10 23:20:00,23.5,18.6,29.35,SSE,158,0.0,0.0,81,0.00,,---,0.00,VWS V13.01,2013-12-11 04:20:00,
2013-12-10 23:24:00,23.5,18.6,29.35,SSE,158,0.0,0.0,81,0.00,,---,0.00,VWS V13.01,2013-12-11 04:24:00,
2013-12-10 23:25:00,23.4,18.1,29.35,SSE,158,0.0,0.0,80,0.00,,---,0.00,VWS V13.01,2013-12-11 04:25:00,
2013-12-10 23:27:00,23.4,18.1,29.35,SSE,158,0.0,0.0,80,0.00,,---,0.00,VWS V13.01,2013-12-11 04:27:00,
2013-12-10 23:29:00,23.4,18.1,29.35,SSE,158,0.0,0.0,80,0.00,,---,0.00,VWS V13.01,2013-12-11 04:29:00,
2013-12-10 23:30:00,23.4,18.1,29.35,SSE,158,0.0,0.0,80,0.00,,---,0.00,VWS V13.01,2013-12-11 04:30:00,
2013-12-10 23:31:00,23.4,18.1,29.35,SSE,158,0.0,0.0,80,0.00,,---,0.00,VWS V13.01,2013-12-11 04:31:00,
2013-12-10 23:33:00,23.4,18.1,29.35,SSE,158,0.0,0.0,80,0.00,,---,0.00,VWS V13.01,2013-12-11 04:33:00,
2013-12-10 23:35:00,23.4,18.1,29.35,SSE,158,0.0,0.0,80,0.00,,---,0.00,VWS V13.01,2013-12-11 04:35:00,
2013-12-10 23:36:00,23.4,18.1,29.35,SSE,158,0.0,0.0,80,0.00,,---,0.00,VWS V13.01,2013-12-11 04:36:00,
2013-12-10 23:39:00,23.4,18.1,29.35,SSE,158,0.0,0.0,80,0.00,,---,0.00,VWS V13.01,2013-12-11 04:39:00,
2013-12-10 23:40:00,23.4,18.1,29.35,SSE,158,0.0,0.0,80,0.00,,---,0.00,VWS V13.01,2013-12-11 04:40:00,
2013-12-10 23:41:00,23.4,18.1,29.35,SSE,158,0.0,0.0,80,0.00,,---,0.00,VWS V13.01,2013-12-11 04:41:00,
2013-12-10 23:44:00,23.4,18.1,29.35,SSE,158,0.0,0.0,80,0.00,,---,0.00,VWS V13.01,2013-12-11 04:44:00,
2013-12-10 23:47:00,23.4,18.1,29.35,SSE,158,0.0,0.0,80,0.00,,---,0.00,VWS V13.01,2013-12-11 04:47:00,
2013-12-10 23:48:00,23.0,17.8,29.35,SSE,158,0.0,0.0,80,0.00,,---,0.00,VWS V13.01,2013-12-11 04:48:00,
2013-12-10 23:49:00,23.0,17.8,29.35,SSE,158,0.0,0.0,80,0.00,,---,0.00,VWS V13.01,2013-12-11 04:49:00,
2013-12-10 23:50:00,23.0,17.8,29.35,SSE,158,0.0,0.0,80,0.00,,---,0.00,VWS V13.01,2013-12-11 04:50:00,
2013-12-10 23:53:00,23.0,17.8,29.35,SSE,158,0.0,0.0,80,0.00,,---,0.00,VWS V13.01,2013-12-11 04:53:00,
2013-12-10 23:54:00,23.0,17.8,29.38,SSE,158,0.0,0.0,80,0.00,,---,0.00,VWS V13.01,2013-12-11 04:54:00,
2013-12-10 23:55:00,23.0,17.8,29.38,SSE,158,0.0,0.0,80,0.00,,---,0.00,VWS V13.01,2013-12-11 04:55:00,
2013-12-10 23:56:00,23.0,17.8,29.38,SSE,158,0.0,0.0,80,0.00,,---,0.00,VWS V13.01,2013-12-11 04:56:00,
2013-12-10 23:59:00,23.0,17.8,29.38,SSE,158,0.0,0.0,80,0.00,,---,0.00,VWS V13.01,2013-12-11 04:59:00,